<?xml version="1.0" encoding="UTF-8" standalone="no" ?>
<gpx xmlns="http://www.topografix.com/GPX/1/1" xmlns:xsi="http://www.w3.org/2001/XMLSchema-instance" xsi:schemaLocation="http://www.topografix.com/GPX/1/1 http://www.topografix.com/GPX/1/1/gpx.xsd" version="1.1" creator="VisuGPX - https://www.visugpx.com">
  <metadata>
    <name>Circuit de l'Andouquette</name>
    <desc><![CDATA[Circuit de l'Andouquette]]></desc>
  </metadata>
  <trk>
    <name><![CDATA[Circuit de l'Andouquette_1]]></name>
    <trkseg>
      <trkpt lat="44.0513" lon="2.29817">
        <ele>515.5</ele>
        <time>2018-04-23T12:38:54Z</time>
      </trkpt>
      <trkpt lat="44.0513" lon="2.29817">
        <ele>515.5</ele>
        <time>2018-04-23T12:39:01Z</time>
      </trkpt>
      <trkpt lat="44.05127" lon="2.29818">
        <ele>512.1</ele>
        <time>2018-04-23T12:38:55Z</time>
      </trkpt>
      <trkpt lat="44.05126" lon="2.29807">
        <ele>511.4</ele>
        <time>2018-04-23T12:40:07Z</time>
      </trkpt>
      <trkpt lat="44.05122" lon="2.29797">
        <ele>511.8</ele>
        <time>2018-04-23T12:40:14Z</time>
      </trkpt>
      <trkpt lat="44.05118" lon="2.29788">
        <ele>511.9</ele>
        <time>2018-04-23T12:40:20Z</time>
      </trkpt>
      <trkpt lat="44.05114" lon="2.29777">
        <ele>513.2</ele>
        <time>2018-04-23T12:40:26Z</time>
      </trkpt>
      <trkpt lat="44.0511" lon="2.29768">
        <ele>514.3</ele>
        <time>2018-04-23T12:40:33Z</time>
      </trkpt>
      <trkpt lat="44.05107" lon="2.29758">
        <ele>515.5</ele>
        <time>2018-04-23T12:40:40Z</time>
      </trkpt>
      <trkpt lat="44.05104" lon="2.29748">
        <ele>517.1</ele>
        <time>2018-04-23T12:40:47Z</time>
      </trkpt>
      <trkpt lat="44.05099" lon="2.29744">
        <ele>517.8</ele>
        <time>2018-04-23T12:40:54Z</time>
      </trkpt>
      <trkpt lat="44.05096" lon="2.29747">
        <ele>516</ele>
        <time>2018-04-23T12:41:01Z</time>
      </trkpt>
      <trkpt lat="44.05094" lon="2.29737">
        <ele>512.5</ele>
        <time>2018-04-23T12:41:27Z</time>
      </trkpt>
      <trkpt lat="44.05093" lon="2.29727">
        <ele>512.2</ele>
        <time>2018-04-23T12:41:33Z</time>
      </trkpt>
      <trkpt lat="44.0509" lon="2.29716">
        <ele>511.7</ele>
        <time>2018-04-23T12:41:39Z</time>
      </trkpt>
      <trkpt lat="44.05087" lon="2.29707">
        <ele>511.8</ele>
        <time>2018-04-23T12:41:45Z</time>
      </trkpt>
      <trkpt lat="44.05084" lon="2.29696">
        <ele>512</ele>
        <time>2018-04-23T12:41:51Z</time>
      </trkpt>
      <trkpt lat="44.0508" lon="2.29688">
        <ele>512.3</ele>
        <time>2018-04-23T12:41:57Z</time>
      </trkpt>
      <trkpt lat="44.05075" lon="2.29679">
        <ele>512.9</ele>
        <time>2018-04-23T12:42:03Z</time>
      </trkpt>
      <trkpt lat="44.05071" lon="2.2967">
        <ele>513.5</ele>
        <time>2018-04-23T12:42:09Z</time>
      </trkpt>
      <trkpt lat="44.05068" lon="2.29661">
        <ele>514.6</ele>
        <time>2018-04-23T12:42:15Z</time>
      </trkpt>
      <trkpt lat="44.05063" lon="2.29652">
        <ele>515.9</ele>
        <time>2018-04-23T12:42:21Z</time>
      </trkpt>
      <trkpt lat="44.0506" lon="2.29643">
        <ele>518.1</ele>
        <time>2018-04-23T12:42:27Z</time>
      </trkpt>
      <trkpt lat="44.05055" lon="2.29634">
        <ele>520</ele>
        <time>2018-04-23T12:42:34Z</time>
      </trkpt>
      <trkpt lat="44.05052" lon="2.29622">
        <ele>521.5</ele>
        <time>2018-04-23T12:42:41Z</time>
      </trkpt>
      <trkpt lat="44.0505" lon="2.29613">
        <ele>522.7</ele>
        <time>2018-04-23T12:42:48Z</time>
      </trkpt>
      <trkpt lat="44.05047" lon="2.29602">
        <ele>523.3</ele>
        <time>2018-04-23T12:42:53Z</time>
      </trkpt>
      <trkpt lat="44.05044" lon="2.29592">
        <ele>523.6</ele>
        <time>2018-04-23T12:42:59Z</time>
      </trkpt>
      <trkpt lat="44.05041" lon="2.29582">
        <ele>524.7</ele>
        <time>2018-04-23T12:43:05Z</time>
      </trkpt>
      <trkpt lat="44.05038" lon="2.29572">
        <ele>525.1</ele>
        <time>2018-04-23T12:43:11Z</time>
      </trkpt>
      <trkpt lat="44.05034" lon="2.29562">
        <ele>525.4</ele>
        <time>2018-04-23T12:43:17Z</time>
      </trkpt>
      <trkpt lat="44.05031" lon="2.29552">
        <ele>525.2</ele>
        <time>2018-04-23T12:43:23Z</time>
      </trkpt>
      <trkpt lat="44.05031" lon="2.29548">
        <ele>525.2</ele>
        <time>2018-04-23T12:43:30Z</time>
      </trkpt>
      <trkpt lat="44.05026" lon="2.29538">
        <ele>525.4</ele>
        <time>2018-04-23T12:43:36Z</time>
      </trkpt>
      <trkpt lat="44.0502" lon="2.2953">
        <ele>525.6</ele>
        <time>2018-04-23T12:43:42Z</time>
      </trkpt>
      <trkpt lat="44.05013" lon="2.29522">
        <ele>525.7</ele>
        <time>2018-04-23T12:43:48Z</time>
      </trkpt>
      <trkpt lat="44.05009" lon="2.29513">
        <ele>525.9</ele>
        <time>2018-04-23T12:43:54Z</time>
      </trkpt>
      <trkpt lat="44.05004" lon="2.29506">
        <ele>526.3</ele>
        <time>2018-04-23T12:44:00Z</time>
      </trkpt>
      <trkpt lat="44.04996" lon="2.29501">
        <ele>526.9</ele>
        <time>2018-04-23T12:44:07Z</time>
      </trkpt>
      <trkpt lat="44.04991" lon="2.29507">
        <ele>528.1</ele>
        <time>2018-04-23T12:44:14Z</time>
      </trkpt>
      <trkpt lat="44.04988" lon="2.29517">
        <ele>528.7</ele>
        <time>2018-04-23T12:44:21Z</time>
      </trkpt>
      <trkpt lat="44.04986" lon="2.29527">
        <ele>530</ele>
        <time>2018-04-23T12:44:27Z</time>
      </trkpt>
      <trkpt lat="44.04985" lon="2.29537">
        <ele>530.3</ele>
        <time>2018-04-23T12:44:34Z</time>
      </trkpt>
      <trkpt lat="44.04984" lon="2.29544">
        <ele>530.8</ele>
        <time>2018-04-23T12:44:41Z</time>
      </trkpt>
      <trkpt lat="44.04983" lon="2.29552">
        <ele>530.9</ele>
        <time>2018-04-23T12:44:48Z</time>
      </trkpt>
      <trkpt lat="44.04982" lon="2.2956">
        <ele>531.4</ele>
        <time>2018-04-23T12:44:55Z</time>
      </trkpt>
      <trkpt lat="44.0498" lon="2.29564">
        <ele>531.3</ele>
        <time>2018-04-23T12:45:02Z</time>
      </trkpt>
      <trkpt lat="44.04982" lon="2.29561">
        <ele>529.6</ele>
        <time>2018-04-23T12:45:09Z</time>
      </trkpt>
      <trkpt lat="44.04985" lon="2.29555">
        <ele>528.6</ele>
        <time>2018-04-23T12:45:16Z</time>
      </trkpt>
      <trkpt lat="44.04987" lon="2.29545">
        <ele>527.7</ele>
        <time>2018-04-23T12:45:22Z</time>
      </trkpt>
      <trkpt lat="44.04988" lon="2.29534">
        <ele>526.4</ele>
        <time>2018-04-23T12:45:28Z</time>
      </trkpt>
      <trkpt lat="44.0499" lon="2.29525">
        <ele>525</ele>
        <time>2018-04-23T12:45:34Z</time>
      </trkpt>
      <trkpt lat="44.0499" lon="2.29514">
        <ele>523.6</ele>
        <time>2018-04-23T12:45:40Z</time>
      </trkpt>
      <trkpt lat="44.04994" lon="2.29503">
        <ele>522.3</ele>
        <time>2018-04-23T12:45:47Z</time>
      </trkpt>
      <trkpt lat="44.04994" lon="2.29499">
        <ele>521.8</ele>
        <time>2018-04-23T12:45:54Z</time>
      </trkpt>
      <trkpt lat="44.04989" lon="2.29491">
        <ele>522.5</ele>
        <time>2018-04-23T12:46:01Z</time>
      </trkpt>
      <trkpt lat="44.04983" lon="2.29484">
        <ele>523.2</ele>
        <time>2018-04-23T12:46:07Z</time>
      </trkpt>
      <trkpt lat="44.04978" lon="2.29476">
        <ele>523.2</ele>
        <time>2018-04-23T12:46:13Z</time>
      </trkpt>
      <trkpt lat="44.04973" lon="2.29468">
        <ele>523.3</ele>
        <time>2018-04-23T12:46:19Z</time>
      </trkpt>
      <trkpt lat="44.04967" lon="2.29459">
        <ele>523.1</ele>
        <time>2018-04-23T12:46:25Z</time>
      </trkpt>
      <trkpt lat="44.04962" lon="2.29452">
        <ele>523</ele>
        <time>2018-04-23T12:46:30Z</time>
      </trkpt>
      <trkpt lat="44.04957" lon="2.29443">
        <ele>522.8</ele>
        <time>2018-04-23T12:46:36Z</time>
      </trkpt>
      <trkpt lat="44.04952" lon="2.29434">
        <ele>522.4</ele>
        <time>2018-04-23T12:46:42Z</time>
      </trkpt>
      <trkpt lat="44.04947" lon="2.29427">
        <ele>522.1</ele>
        <time>2018-04-23T12:46:47Z</time>
      </trkpt>
      <trkpt lat="44.04941" lon="2.29419">
        <ele>521.5</ele>
        <time>2018-04-23T12:46:53Z</time>
      </trkpt>
      <trkpt lat="44.04936" lon="2.29413">
        <ele>520.8</ele>
        <time>2018-04-23T12:46:58Z</time>
      </trkpt>
      <trkpt lat="44.04929" lon="2.29406">
        <ele>520.9</ele>
        <time>2018-04-23T12:47:04Z</time>
      </trkpt>
      <trkpt lat="44.04923" lon="2.29399">
        <ele>521</ele>
        <time>2018-04-23T12:47:09Z</time>
      </trkpt>
      <trkpt lat="44.04916" lon="2.29394">
        <ele>521.1</ele>
        <time>2018-04-23T12:47:15Z</time>
      </trkpt>
      <trkpt lat="44.0491" lon="2.29388">
        <ele>520.9</ele>
        <time>2018-04-23T12:47:20Z</time>
      </trkpt>
      <trkpt lat="44.04904" lon="2.2938">
        <ele>520.2</ele>
        <time>2018-04-23T12:47:26Z</time>
      </trkpt>
      <trkpt lat="44.04898" lon="2.29375">
        <ele>519.6</ele>
        <time>2018-04-23T12:47:31Z</time>
      </trkpt>
      <trkpt lat="44.04891" lon="2.29368">
        <ele>519.2</ele>
        <time>2018-04-23T12:47:37Z</time>
      </trkpt>
      <trkpt lat="44.04884" lon="2.29363">
        <ele>518.6</ele>
        <time>2018-04-23T12:47:43Z</time>
      </trkpt>
      <trkpt lat="44.04877" lon="2.29357">
        <ele>516.3</ele>
        <time>2018-04-23T12:47:50Z</time>
      </trkpt>
      <trkpt lat="44.04871" lon="2.29349">
        <ele>514.6</ele>
        <time>2018-04-23T12:47:56Z</time>
      </trkpt>
      <trkpt lat="44.04865" lon="2.29343">
        <ele>513.2</ele>
        <time>2018-04-23T12:48:01Z</time>
      </trkpt>
      <trkpt lat="44.04858" lon="2.29339">
        <ele>512.8</ele>
        <time>2018-04-23T12:48:06Z</time>
      </trkpt>
      <trkpt lat="44.04851" lon="2.29333">
        <ele>512.1</ele>
        <time>2018-04-23T12:48:12Z</time>
      </trkpt>
      <trkpt lat="44.04844" lon="2.29326">
        <ele>511.5</ele>
        <time>2018-04-23T12:48:18Z</time>
      </trkpt>
      <trkpt lat="44.04837" lon="2.29321">
        <ele>510.8</ele>
        <time>2018-04-23T12:48:24Z</time>
      </trkpt>
      <trkpt lat="44.0483" lon="2.29316">
        <ele>510.4</ele>
        <time>2018-04-23T12:48:29Z</time>
      </trkpt>
      <trkpt lat="44.04823" lon="2.2931">
        <ele>510.2</ele>
        <time>2018-04-23T12:48:35Z</time>
      </trkpt>
      <trkpt lat="44.04818" lon="2.29305">
        <ele>509.3</ele>
        <time>2018-04-23T12:48:41Z</time>
      </trkpt>
      <trkpt lat="44.04811" lon="2.29299">
        <ele>508.3</ele>
        <time>2018-04-23T12:48:46Z</time>
      </trkpt>
      <trkpt lat="44.04804" lon="2.29294">
        <ele>507.6</ele>
        <time>2018-04-23T12:48:52Z</time>
      </trkpt>
      <trkpt lat="44.04798" lon="2.29288">
        <ele>507.1</ele>
        <time>2018-04-23T12:48:58Z</time>
      </trkpt>
      <trkpt lat="44.04796" lon="2.29288">
        <ele>507.1</ele>
        <time>2018-04-23T12:49:05Z</time>
      </trkpt>
      <trkpt lat="44.04796" lon="2.29289">
        <ele>507.4</ele>
        <time>2018-04-23T12:49:12Z</time>
      </trkpt>
      <trkpt lat="44.04795" lon="2.2929">
        <ele>507.3</ele>
        <time>2018-04-23T12:49:19Z</time>
      </trkpt>
      <trkpt lat="44.04791" lon="2.29287">
        <ele>507.5</ele>
        <time>2018-04-23T12:49:41Z</time>
      </trkpt>
      <trkpt lat="44.04788" lon="2.29283">
        <ele>507.4</ele>
        <time>2018-04-23T12:49:48Z</time>
      </trkpt>
      <trkpt lat="44.04781" lon="2.29276">
        <ele>506.5</ele>
        <time>2018-04-23T12:49:55Z</time>
      </trkpt>
      <trkpt lat="44.04774" lon="2.29269">
        <ele>505.3</ele>
        <time>2018-04-23T12:50:02Z</time>
      </trkpt>
      <trkpt lat="44.04769" lon="2.29263">
        <ele>504.9</ele>
        <time>2018-04-23T12:50:08Z</time>
      </trkpt>
      <trkpt lat="44.04764" lon="2.29256">
        <ele>505.1</ele>
        <time>2018-04-23T12:50:15Z</time>
      </trkpt>
      <trkpt lat="44.0476" lon="2.29247">
        <ele>505.1</ele>
        <time>2018-04-23T12:50:22Z</time>
      </trkpt>
      <trkpt lat="44.04757" lon="2.29241">
        <ele>503.5</ele>
        <time>2018-04-23T12:50:29Z</time>
      </trkpt>
      <trkpt lat="44.04754" lon="2.29234">
        <ele>502</ele>
        <time>2018-04-23T12:50:36Z</time>
      </trkpt>
      <trkpt lat="44.04751" lon="2.29226">
        <ele>499.6</ele>
        <time>2018-04-23T12:50:43Z</time>
      </trkpt>
      <trkpt lat="44.04748" lon="2.29216">
        <ele>497.7</ele>
        <time>2018-04-23T12:50:50Z</time>
      </trkpt>
      <trkpt lat="44.04746" lon="2.29205">
        <ele>497</ele>
        <time>2018-04-23T12:50:57Z</time>
      </trkpt>
      <trkpt lat="44.04743" lon="2.29195">
        <ele>496.5</ele>
        <time>2018-04-23T12:51:04Z</time>
      </trkpt>
      <trkpt lat="44.0474" lon="2.29185">
        <ele>495.5</ele>
        <time>2018-04-23T12:51:11Z</time>
      </trkpt>
      <trkpt lat="44.04738" lon="2.29174">
        <ele>493.6</ele>
        <time>2018-04-23T12:51:18Z</time>
      </trkpt>
      <trkpt lat="44.04735" lon="2.29165">
        <ele>492.8</ele>
        <time>2018-04-23T12:51:23Z</time>
      </trkpt>
      <trkpt lat="44.04733" lon="2.29153">
        <ele>492.4</ele>
        <time>2018-04-23T12:51:28Z</time>
      </trkpt>
      <trkpt lat="44.04731" lon="2.29144">
        <ele>492</ele>
        <time>2018-04-23T12:51:34Z</time>
      </trkpt>
      <trkpt lat="44.04727" lon="2.29134">
        <ele>492.8</ele>
        <time>2018-04-23T12:51:39Z</time>
      </trkpt>
      <trkpt lat="44.04723" lon="2.29126">
        <ele>493.5</ele>
        <time>2018-04-23T12:51:44Z</time>
      </trkpt>
      <trkpt lat="44.04717" lon="2.29118">
        <ele>494.1</ele>
        <time>2018-04-23T12:51:49Z</time>
      </trkpt>
      <trkpt lat="44.04712" lon="2.2911">
        <ele>494.4</ele>
        <time>2018-04-23T12:51:55Z</time>
      </trkpt>
      <trkpt lat="44.04706" lon="2.29102">
        <ele>493.9</ele>
        <time>2018-04-23T12:52:00Z</time>
      </trkpt>
      <trkpt lat="44.04701" lon="2.29093">
        <ele>494.2</ele>
        <time>2018-04-23T12:52:06Z</time>
      </trkpt>
      <trkpt lat="44.04696" lon="2.29086">
        <ele>494.9</ele>
        <time>2018-04-23T12:52:11Z</time>
      </trkpt>
      <trkpt lat="44.04691" lon="2.29077">
        <ele>494.4</ele>
        <time>2018-04-23T12:52:16Z</time>
      </trkpt>
      <trkpt lat="44.04686" lon="2.29069">
        <ele>493.3</ele>
        <time>2018-04-23T12:52:22Z</time>
      </trkpt>
      <trkpt lat="44.04682" lon="2.2906">
        <ele>492.7</ele>
        <time>2018-04-23T12:52:26Z</time>
      </trkpt>
      <trkpt lat="44.04678" lon="2.2905">
        <ele>491.1</ele>
        <time>2018-04-23T12:52:33Z</time>
      </trkpt>
      <trkpt lat="44.04675" lon="2.2904">
        <ele>490</ele>
        <time>2018-04-23T12:52:38Z</time>
      </trkpt>
      <trkpt lat="44.0467" lon="2.29031">
        <ele>488.9</ele>
        <time>2018-04-23T12:52:43Z</time>
      </trkpt>
      <trkpt lat="44.04666" lon="2.29021">
        <ele>487.9</ele>
        <time>2018-04-23T12:52:49Z</time>
      </trkpt>
      <trkpt lat="44.04662" lon="2.29011">
        <ele>487.1</ele>
        <time>2018-04-23T12:52:55Z</time>
      </trkpt>
      <trkpt lat="44.04659" lon="2.29001">
        <ele>486</ele>
        <time>2018-04-23T12:53:01Z</time>
      </trkpt>
      <trkpt lat="44.04657" lon="2.28989">
        <ele>484.8</ele>
        <time>2018-04-23T12:53:07Z</time>
      </trkpt>
      <trkpt lat="44.04655" lon="2.28979">
        <ele>483.9</ele>
        <time>2018-04-23T12:53:13Z</time>
      </trkpt>
      <trkpt lat="44.04652" lon="2.28969">
        <ele>483.6</ele>
        <time>2018-04-23T12:53:18Z</time>
      </trkpt>
      <trkpt lat="44.04649" lon="2.28959">
        <ele>483.4</ele>
        <time>2018-04-23T12:53:23Z</time>
      </trkpt>
      <trkpt lat="44.04646" lon="2.28949">
        <ele>483.1</ele>
        <time>2018-04-23T12:53:29Z</time>
      </trkpt>
      <trkpt lat="44.04644" lon="2.28939">
        <ele>481.8</ele>
        <time>2018-04-23T12:53:35Z</time>
      </trkpt>
      <trkpt lat="44.04643" lon="2.28929">
        <ele>480.5</ele>
        <time>2018-04-23T12:53:41Z</time>
      </trkpt>
      <trkpt lat="44.04645" lon="2.28918">
        <ele>480.8</ele>
        <time>2018-04-23T12:53:48Z</time>
      </trkpt>
      <trkpt lat="44.04644" lon="2.28905">
        <ele>479.9</ele>
        <time>2018-04-23T12:53:53Z</time>
      </trkpt>
      <trkpt lat="44.04642" lon="2.28896">
        <ele>477.5</ele>
        <time>2018-04-23T12:54:00Z</time>
      </trkpt>
      <trkpt lat="44.04637" lon="2.28895">
        <ele>475.6</ele>
        <time>2018-04-23T12:54:07Z</time>
      </trkpt>
      <trkpt lat="44.0463" lon="2.28896">
        <ele>473.5</ele>
        <time>2018-04-23T12:54:12Z</time>
      </trkpt>
      <trkpt lat="44.04622" lon="2.28897">
        <ele>472</ele>
        <time>2018-04-23T12:54:17Z</time>
      </trkpt>
      <trkpt lat="44.04615" lon="2.28902">
        <ele>470.5</ele>
        <time>2018-04-23T12:54:24Z</time>
      </trkpt>
      <trkpt lat="44.04607" lon="2.28903">
        <ele>469.7</ele>
        <time>2018-04-23T12:54:31Z</time>
      </trkpt>
      <trkpt lat="44.04598" lon="2.28904">
        <ele>469.1</ele>
        <time>2018-04-23T12:54:37Z</time>
      </trkpt>
      <trkpt lat="44.04592" lon="2.28907">
        <ele>468</ele>
        <time>2018-04-23T12:54:42Z</time>
      </trkpt>
      <trkpt lat="44.04584" lon="2.28907">
        <ele>466.8</ele>
        <time>2018-04-23T12:54:48Z</time>
      </trkpt>
      <trkpt lat="44.04576" lon="2.28906">
        <ele>465.5</ele>
        <time>2018-04-23T12:54:54Z</time>
      </trkpt>
      <trkpt lat="44.04568" lon="2.28904">
        <ele>464.6</ele>
        <time>2018-04-23T12:55:00Z</time>
      </trkpt>
      <trkpt lat="44.0456" lon="2.28903">
        <ele>463.2</ele>
        <time>2018-04-23T12:55:06Z</time>
      </trkpt>
      <trkpt lat="44.04552" lon="2.289">
        <ele>462.1</ele>
        <time>2018-04-23T12:55:12Z</time>
      </trkpt>
      <trkpt lat="44.04545" lon="2.28896">
        <ele>461.2</ele>
        <time>2018-04-23T12:55:18Z</time>
      </trkpt>
      <trkpt lat="44.04536" lon="2.28892">
        <ele>460.2</ele>
        <time>2018-04-23T12:55:24Z</time>
      </trkpt>
      <trkpt lat="44.04531" lon="2.28884">
        <ele>458.9</ele>
        <time>2018-04-23T12:55:31Z</time>
      </trkpt>
      <trkpt lat="44.0453" lon="2.28873">
        <ele>458.6</ele>
        <time>2018-04-23T12:55:38Z</time>
      </trkpt>
      <trkpt lat="44.04531" lon="2.28861">
        <ele>457.6</ele>
        <time>2018-04-23T12:55:45Z</time>
      </trkpt>
      <trkpt lat="44.0453" lon="2.28851">
        <ele>454.5</ele>
        <time>2018-04-23T12:55:52Z</time>
      </trkpt>
      <trkpt lat="44.04523" lon="2.28844">
        <ele>452.6</ele>
        <time>2018-04-23T12:55:58Z</time>
      </trkpt>
      <trkpt lat="44.04516" lon="2.28842">
        <ele>451.7</ele>
        <time>2018-04-23T12:56:02Z</time>
      </trkpt>
      <trkpt lat="44.04508" lon="2.28845">
        <ele>451.3</ele>
        <time>2018-04-23T12:56:09Z</time>
      </trkpt>
      <trkpt lat="44.04501" lon="2.28847">
        <ele>451.2</ele>
        <time>2018-04-23T12:56:15Z</time>
      </trkpt>
      <trkpt lat="44.04493" lon="2.28849">
        <ele>451.1</ele>
        <time>2018-04-23T12:56:21Z</time>
      </trkpt>
      <trkpt lat="44.04486" lon="2.28853">
        <ele>450.4</ele>
        <time>2018-04-23T12:56:27Z</time>
      </trkpt>
      <trkpt lat="44.04478" lon="2.28857">
        <ele>449.3</ele>
        <time>2018-04-23T12:56:33Z</time>
      </trkpt>
      <trkpt lat="44.04472" lon="2.28861">
        <ele>448.8</ele>
        <time>2018-04-23T12:56:40Z</time>
      </trkpt>
      <trkpt lat="44.04465" lon="2.28867">
        <ele>448.3</ele>
        <time>2018-04-23T12:56:46Z</time>
      </trkpt>
      <trkpt lat="44.04459" lon="2.28876">
        <ele>447.2</ele>
        <time>2018-04-23T12:56:53Z</time>
      </trkpt>
      <trkpt lat="44.04453" lon="2.28882">
        <ele>446.3</ele>
        <time>2018-04-23T12:56:58Z</time>
      </trkpt>
      <trkpt lat="44.04449" lon="2.28892">
        <ele>445.9</ele>
        <time>2018-04-23T12:57:03Z</time>
      </trkpt>
      <trkpt lat="44.04444" lon="2.28902">
        <ele>444.7</ele>
        <time>2018-04-23T12:57:08Z</time>
      </trkpt>
      <trkpt lat="44.04439" lon="2.28911">
        <ele>443.7</ele>
        <time>2018-04-23T12:57:13Z</time>
      </trkpt>
      <trkpt lat="44.04434" lon="2.28918">
        <ele>442.9</ele>
        <time>2018-04-23T12:57:19Z</time>
      </trkpt>
      <trkpt lat="44.04426" lon="2.28924">
        <ele>441</ele>
        <time>2018-04-23T12:57:26Z</time>
      </trkpt>
      <trkpt lat="44.0442" lon="2.28931">
        <ele>440</ele>
        <time>2018-04-23T12:57:32Z</time>
      </trkpt>
      <trkpt lat="44.04413" lon="2.28937">
        <ele>440</ele>
        <time>2018-04-23T12:57:37Z</time>
      </trkpt>
      <trkpt lat="44.04406" lon="2.28942">
        <ele>440.3</ele>
        <time>2018-04-23T12:57:42Z</time>
      </trkpt>
      <trkpt lat="44.04398" lon="2.28947">
        <ele>440.9</ele>
        <time>2018-04-23T12:57:48Z</time>
      </trkpt>
      <trkpt lat="44.0439" lon="2.2895">
        <ele>442.1</ele>
        <time>2018-04-23T12:57:54Z</time>
      </trkpt>
      <trkpt lat="44.04383" lon="2.28954">
        <ele>443.1</ele>
        <time>2018-04-23T12:58:00Z</time>
      </trkpt>
      <trkpt lat="44.04376" lon="2.28958">
        <ele>443.4</ele>
        <time>2018-04-23T12:58:06Z</time>
      </trkpt>
      <trkpt lat="44.04368" lon="2.28958">
        <ele>443</ele>
        <time>2018-04-23T12:58:12Z</time>
      </trkpt>
      <trkpt lat="44.04361" lon="2.28959">
        <ele>442.4</ele>
        <time>2018-04-23T12:58:18Z</time>
      </trkpt>
      <trkpt lat="44.04353" lon="2.2896">
        <ele>441.6</ele>
        <time>2018-04-23T12:58:24Z</time>
      </trkpt>
      <trkpt lat="44.04345" lon="2.2896">
        <ele>441.9</ele>
        <time>2018-04-23T12:58:30Z</time>
      </trkpt>
      <trkpt lat="44.04337" lon="2.28961">
        <ele>442.2</ele>
        <time>2018-04-23T12:58:36Z</time>
      </trkpt>
      <trkpt lat="44.0433" lon="2.28965">
        <ele>442.1</ele>
        <time>2018-04-23T12:58:42Z</time>
      </trkpt>
      <trkpt lat="44.04322" lon="2.28967">
        <ele>441.9</ele>
        <time>2018-04-23T12:58:48Z</time>
      </trkpt>
      <trkpt lat="44.04314" lon="2.2897">
        <ele>442.1</ele>
        <time>2018-04-23T12:58:53Z</time>
      </trkpt>
      <trkpt lat="44.04307" lon="2.28974">
        <ele>443.1</ele>
        <time>2018-04-23T12:58:58Z</time>
      </trkpt>
      <trkpt lat="44.043" lon="2.28978">
        <ele>443.9</ele>
        <time>2018-04-23T12:59:03Z</time>
      </trkpt>
      <trkpt lat="44.04293" lon="2.28981">
        <ele>445.6</ele>
        <time>2018-04-23T12:59:09Z</time>
      </trkpt>
      <trkpt lat="44.04285" lon="2.28985">
        <ele>447.1</ele>
        <time>2018-04-23T12:59:14Z</time>
      </trkpt>
      <trkpt lat="44.04277" lon="2.28989">
        <ele>448.2</ele>
        <time>2018-04-23T12:59:20Z</time>
      </trkpt>
      <trkpt lat="44.0427" lon="2.28992">
        <ele>448.9</ele>
        <time>2018-04-23T12:59:26Z</time>
      </trkpt>
      <trkpt lat="44.04263" lon="2.28995">
        <ele>450.2</ele>
        <time>2018-04-23T12:59:31Z</time>
      </trkpt>
      <trkpt lat="44.04256" lon="2.28999">
        <ele>451.4</ele>
        <time>2018-04-23T12:59:37Z</time>
      </trkpt>
      <trkpt lat="44.04249" lon="2.29002">
        <ele>451.9</ele>
        <time>2018-04-23T12:59:43Z</time>
      </trkpt>
      <trkpt lat="44.04241" lon="2.29005">
        <ele>451.6</ele>
        <time>2018-04-23T12:59:49Z</time>
      </trkpt>
      <trkpt lat="44.04234" lon="2.29009">
        <ele>451.9</ele>
        <time>2018-04-23T12:59:55Z</time>
      </trkpt>
      <trkpt lat="44.04227" lon="2.29013">
        <ele>451.6</ele>
        <time>2018-04-23T13:00:01Z</time>
      </trkpt>
      <trkpt lat="44.04219" lon="2.29019">
        <ele>450.3</ele>
        <time>2018-04-23T13:00:08Z</time>
      </trkpt>
      <trkpt lat="44.04211" lon="2.29024">
        <ele>450.8</ele>
        <time>2018-04-23T13:00:14Z</time>
      </trkpt>
      <trkpt lat="44.04204" lon="2.2903">
        <ele>451</ele>
        <time>2018-04-23T13:00:20Z</time>
      </trkpt>
      <trkpt lat="44.04198" lon="2.29036">
        <ele>450.1</ele>
        <time>2018-04-23T13:00:26Z</time>
      </trkpt>
      <trkpt lat="44.0419" lon="2.2904">
        <ele>450</ele>
        <time>2018-04-23T13:00:33Z</time>
      </trkpt>
      <trkpt lat="44.04182" lon="2.29046">
        <ele>449.7</ele>
        <time>2018-04-23T13:00:39Z</time>
      </trkpt>
      <trkpt lat="44.04175" lon="2.29051">
        <ele>448</ele>
        <time>2018-04-23T13:00:44Z</time>
      </trkpt>
      <trkpt lat="44.04168" lon="2.29057">
        <ele>446.3</ele>
        <time>2018-04-23T13:00:49Z</time>
      </trkpt>
      <trkpt lat="44.04161" lon="2.29062">
        <ele>446</ele>
        <time>2018-04-23T13:00:55Z</time>
      </trkpt>
      <trkpt lat="44.04154" lon="2.29066">
        <ele>446</ele>
        <time>2018-04-23T13:01:00Z</time>
      </trkpt>
      <trkpt lat="44.04146" lon="2.29072">
        <ele>446.8</ele>
        <time>2018-04-23T13:01:06Z</time>
      </trkpt>
      <trkpt lat="44.04139" lon="2.29078">
        <ele>447.6</ele>
        <time>2018-04-23T13:01:12Z</time>
      </trkpt>
      <trkpt lat="44.04132" lon="2.29083">
        <ele>448.7</ele>
        <time>2018-04-23T13:01:18Z</time>
      </trkpt>
      <trkpt lat="44.04125" lon="2.29089">
        <ele>449.7</ele>
        <time>2018-04-23T13:01:24Z</time>
      </trkpt>
      <trkpt lat="44.04118" lon="2.29094">
        <ele>450.3</ele>
        <time>2018-04-23T13:01:30Z</time>
      </trkpt>
      <trkpt lat="44.0411" lon="2.29099">
        <ele>451.1</ele>
        <time>2018-04-23T13:01:35Z</time>
      </trkpt>
      <trkpt lat="44.04104" lon="2.29103">
        <ele>451</ele>
        <time>2018-04-23T13:01:40Z</time>
      </trkpt>
      <trkpt lat="44.04097" lon="2.29109">
        <ele>451.8</ele>
        <time>2018-04-23T13:01:46Z</time>
      </trkpt>
      <trkpt lat="44.0409" lon="2.29113">
        <ele>452.7</ele>
        <time>2018-04-23T13:01:52Z</time>
      </trkpt>
      <trkpt lat="44.04084" lon="2.29119">
        <ele>453.2</ele>
        <time>2018-04-23T13:01:57Z</time>
      </trkpt>
      <trkpt lat="44.04077" lon="2.29125">
        <ele>453.4</ele>
        <time>2018-04-23T13:02:02Z</time>
      </trkpt>
      <trkpt lat="44.0407" lon="2.29127">
        <ele>453.8</ele>
        <time>2018-04-23T13:02:08Z</time>
      </trkpt>
      <trkpt lat="44.04064" lon="2.29121">
        <ele>454.4</ele>
        <time>2018-04-23T13:02:13Z</time>
      </trkpt>
      <trkpt lat="44.04058" lon="2.29114">
        <ele>455</ele>
        <time>2018-04-23T13:02:18Z</time>
      </trkpt>
      <trkpt lat="44.04051" lon="2.29107">
        <ele>455.1</ele>
        <time>2018-04-23T13:02:24Z</time>
      </trkpt>
      <trkpt lat="44.04045" lon="2.291">
        <ele>455.4</ele>
        <time>2018-04-23T13:02:30Z</time>
      </trkpt>
      <trkpt lat="44.04039" lon="2.29093">
        <ele>455.5</ele>
        <time>2018-04-23T13:02:36Z</time>
      </trkpt>
      <trkpt lat="44.04033" lon="2.29085">
        <ele>455.3</ele>
        <time>2018-04-23T13:02:41Z</time>
      </trkpt>
      <trkpt lat="44.04026" lon="2.29078">
        <ele>454.8</ele>
        <time>2018-04-23T13:02:47Z</time>
      </trkpt>
      <trkpt lat="44.04021" lon="2.2907">
        <ele>454.2</ele>
        <time>2018-04-23T13:02:53Z</time>
      </trkpt>
      <trkpt lat="44.04014" lon="2.29064">
        <ele>453.2</ele>
        <time>2018-04-23T13:02:59Z</time>
      </trkpt>
      <trkpt lat="44.04009" lon="2.29055">
        <ele>452.7</ele>
        <time>2018-04-23T13:03:05Z</time>
      </trkpt>
      <trkpt lat="44.04003" lon="2.29048">
        <ele>451.7</ele>
        <time>2018-04-23T13:03:11Z</time>
      </trkpt>
      <trkpt lat="44.03997" lon="2.2904">
        <ele>450.9</ele>
        <time>2018-04-23T13:03:17Z</time>
      </trkpt>
      <trkpt lat="44.0399" lon="2.29034">
        <ele>450.3</ele>
        <time>2018-04-23T13:03:23Z</time>
      </trkpt>
      <trkpt lat="44.03985" lon="2.29026">
        <ele>449.9</ele>
        <time>2018-04-23T13:03:29Z</time>
      </trkpt>
      <trkpt lat="44.0398" lon="2.29017">
        <ele>449.1</ele>
        <time>2018-04-23T13:03:35Z</time>
      </trkpt>
      <trkpt lat="44.03974" lon="2.29011">
        <ele>448.2</ele>
        <time>2018-04-23T13:03:40Z</time>
      </trkpt>
      <trkpt lat="44.03969" lon="2.29003">
        <ele>447.7</ele>
        <time>2018-04-23T13:03:46Z</time>
      </trkpt>
      <trkpt lat="44.03963" lon="2.28994">
        <ele>447</ele>
        <time>2018-04-23T13:03:52Z</time>
      </trkpt>
      <trkpt lat="44.03958" lon="2.28986">
        <ele>446.1</ele>
        <time>2018-04-23T13:03:58Z</time>
      </trkpt>
      <trkpt lat="44.03953" lon="2.28978">
        <ele>446.4</ele>
        <time>2018-04-23T13:04:04Z</time>
      </trkpt>
      <trkpt lat="44.03948" lon="2.28969">
        <ele>445.4</ele>
        <time>2018-04-23T13:04:10Z</time>
      </trkpt>
      <trkpt lat="44.03943" lon="2.28961">
        <ele>443.7</ele>
        <time>2018-04-23T13:04:16Z</time>
      </trkpt>
      <trkpt lat="44.03938" lon="2.28951">
        <ele>442.2</ele>
        <time>2018-04-23T13:04:22Z</time>
      </trkpt>
      <trkpt lat="44.03932" lon="2.28944">
        <ele>440.4</ele>
        <time>2018-04-23T13:04:28Z</time>
      </trkpt>
      <trkpt lat="44.03927" lon="2.28936">
        <ele>439.7</ele>
        <time>2018-04-23T13:04:33Z</time>
      </trkpt>
      <trkpt lat="44.03921" lon="2.28929">
        <ele>438.3</ele>
        <time>2018-04-23T13:04:38Z</time>
      </trkpt>
      <trkpt lat="44.03915" lon="2.2892">
        <ele>436.9</ele>
        <time>2018-04-23T13:04:44Z</time>
      </trkpt>
      <trkpt lat="44.03911" lon="2.28911">
        <ele>436.1</ele>
        <time>2018-04-23T13:04:50Z</time>
      </trkpt>
      <trkpt lat="44.03905" lon="2.28903">
        <ele>434.1</ele>
        <time>2018-04-23T13:04:56Z</time>
      </trkpt>
      <trkpt lat="44.039" lon="2.28894">
        <ele>432.8</ele>
        <time>2018-04-23T13:05:02Z</time>
      </trkpt>
      <trkpt lat="44.03894" lon="2.2889">
        <ele>431.8</ele>
        <time>2018-04-23T13:05:09Z</time>
      </trkpt>
      <trkpt lat="44.03887" lon="2.28896">
        <ele>429.8</ele>
        <time>2018-04-23T13:05:16Z</time>
      </trkpt>
      <trkpt lat="44.03884" lon="2.28906">
        <ele>427.5</ele>
        <time>2018-04-23T13:05:21Z</time>
      </trkpt>
      <trkpt lat="44.03884" lon="2.28916">
        <ele>425.1</ele>
        <time>2018-04-23T13:05:26Z</time>
      </trkpt>
      <trkpt lat="44.03885" lon="2.28927">
        <ele>422.9</ele>
        <time>2018-04-23T13:05:32Z</time>
      </trkpt>
      <trkpt lat="44.03887" lon="2.28937">
        <ele>421.9</ele>
        <time>2018-04-23T13:05:37Z</time>
      </trkpt>
      <trkpt lat="44.03889" lon="2.28948">
        <ele>420.4</ele>
        <time>2018-04-23T13:05:44Z</time>
      </trkpt>
      <trkpt lat="44.03892" lon="2.28957">
        <ele>417.4</ele>
        <time>2018-04-23T13:05:50Z</time>
      </trkpt>
      <trkpt lat="44.03893" lon="2.28967">
        <ele>412.6</ele>
        <time>2018-04-23T13:05:56Z</time>
      </trkpt>
      <trkpt lat="44.03895" lon="2.28977">
        <ele>409</ele>
        <time>2018-04-23T13:06:02Z</time>
      </trkpt>
      <trkpt lat="44.03896" lon="2.28988">
        <ele>405.8</ele>
        <time>2018-04-23T13:06:08Z</time>
      </trkpt>
      <trkpt lat="44.03898" lon="2.28999">
        <ele>401.9</ele>
        <time>2018-04-23T13:06:14Z</time>
      </trkpt>
      <trkpt lat="44.039" lon="2.29009">
        <ele>398.3</ele>
        <time>2018-04-23T13:06:20Z</time>
      </trkpt>
      <trkpt lat="44.03902" lon="2.29019">
        <ele>395.3</ele>
        <time>2018-04-23T13:06:26Z</time>
      </trkpt>
      <trkpt lat="44.03907" lon="2.29026">
        <ele>393.1</ele>
        <time>2018-04-23T13:06:30Z</time>
      </trkpt>
      <trkpt lat="44.03911" lon="2.29036">
        <ele>389.9</ele>
        <time>2018-04-23T13:06:35Z</time>
      </trkpt>
      <trkpt lat="44.03914" lon="2.29046">
        <ele>386.9</ele>
        <time>2018-04-23T13:06:42Z</time>
      </trkpt>
      <trkpt lat="44.03916" lon="2.29056">
        <ele>384.4</ele>
        <time>2018-04-23T13:06:47Z</time>
      </trkpt>
      <trkpt lat="44.03918" lon="2.29066">
        <ele>382.6</ele>
        <time>2018-04-23T13:06:52Z</time>
      </trkpt>
      <trkpt lat="44.03921" lon="2.29077">
        <ele>379.4</ele>
        <time>2018-04-23T13:06:58Z</time>
      </trkpt>
      <trkpt lat="44.03922" lon="2.29085">
        <ele>380.3</ele>
        <time>2018-04-23T13:07:05Z</time>
      </trkpt>
      <trkpt lat="44.03925" lon="2.29094">
        <ele>378.4</ele>
        <time>2018-04-23T13:07:11Z</time>
      </trkpt>
      <trkpt lat="44.03927" lon="2.29104">
        <ele>377.9</ele>
        <time>2018-04-23T13:07:18Z</time>
      </trkpt>
      <trkpt lat="44.03928" lon="2.29115">
        <ele>374.8</ele>
        <time>2018-04-23T13:07:24Z</time>
      </trkpt>
      <trkpt lat="44.0393" lon="2.29125">
        <ele>371.2</ele>
        <time>2018-04-23T13:07:30Z</time>
      </trkpt>
      <trkpt lat="44.03933" lon="2.29135">
        <ele>368.7</ele>
        <time>2018-04-23T13:07:36Z</time>
      </trkpt>
      <trkpt lat="44.03935" lon="2.29146">
        <ele>366.9</ele>
        <time>2018-04-23T13:07:43Z</time>
      </trkpt>
      <trkpt lat="44.03936" lon="2.29158">
        <ele>365.6</ele>
        <time>2018-04-23T13:07:50Z</time>
      </trkpt>
      <trkpt lat="44.0394" lon="2.29168">
        <ele>364.1</ele>
        <time>2018-04-23T13:07:55Z</time>
      </trkpt>
      <trkpt lat="44.03941" lon="2.29178">
        <ele>361.8</ele>
        <time>2018-04-23T13:08:01Z</time>
      </trkpt>
      <trkpt lat="44.03942" lon="2.2919">
        <ele>359.5</ele>
        <time>2018-04-23T13:08:07Z</time>
      </trkpt>
      <trkpt lat="44.03943" lon="2.29201">
        <ele>356.8</ele>
        <time>2018-04-23T13:08:12Z</time>
      </trkpt>
      <trkpt lat="44.03944" lon="2.29212">
        <ele>354.3</ele>
        <time>2018-04-23T13:08:18Z</time>
      </trkpt>
      <trkpt lat="44.03945" lon="2.29222">
        <ele>352.1</ele>
        <time>2018-04-23T13:08:23Z</time>
      </trkpt>
      <trkpt lat="44.03949" lon="2.29231">
        <ele>351.6</ele>
        <time>2018-04-23T13:08:28Z</time>
      </trkpt>
      <trkpt lat="44.03951" lon="2.2924">
        <ele>352.1</ele>
        <time>2018-04-23T13:08:34Z</time>
      </trkpt>
      <trkpt lat="44.03948" lon="2.29245">
        <ele>348.2</ele>
        <time>2018-04-23T13:08:41Z</time>
      </trkpt>
      <trkpt lat="44.0394" lon="2.29245">
        <ele>343.3</ele>
        <time>2018-04-23T13:08:49Z</time>
      </trkpt>
      <trkpt lat="44.03931" lon="2.29246">
        <ele>341.4</ele>
        <time>2018-04-23T13:08:54Z</time>
      </trkpt>
      <trkpt lat="44.03924" lon="2.29242">
        <ele>338.8</ele>
        <time>2018-04-23T13:09:01Z</time>
      </trkpt>
      <trkpt lat="44.03917" lon="2.29239">
        <ele>336.7</ele>
        <time>2018-04-23T13:09:08Z</time>
      </trkpt>
      <trkpt lat="44.0391" lon="2.29237">
        <ele>335.9</ele>
        <time>2018-04-23T13:09:14Z</time>
      </trkpt>
      <trkpt lat="44.03903" lon="2.29235">
        <ele>334.4</ele>
        <time>2018-04-23T13:09:21Z</time>
      </trkpt>
      <trkpt lat="44.03893" lon="2.29235">
        <ele>336.8</ele>
        <time>2018-04-23T13:09:27Z</time>
      </trkpt>
      <trkpt lat="44.03888" lon="2.29228">
        <ele>337</ele>
        <time>2018-04-23T13:09:33Z</time>
      </trkpt>
      <trkpt lat="44.03884" lon="2.29219">
        <ele>335.9</ele>
        <time>2018-04-23T13:09:38Z</time>
      </trkpt>
      <trkpt lat="44.03879" lon="2.29212">
        <ele>334.9</ele>
        <time>2018-04-23T13:09:43Z</time>
      </trkpt>
      <trkpt lat="44.03875" lon="2.29204">
        <ele>333.7</ele>
        <time>2018-04-23T13:09:50Z</time>
      </trkpt>
      <trkpt lat="44.03869" lon="2.29196">
        <ele>332.8</ele>
        <time>2018-04-23T13:09:55Z</time>
      </trkpt>
      <trkpt lat="44.03863" lon="2.29189">
        <ele>332.2</ele>
        <time>2018-04-23T13:10:01Z</time>
      </trkpt>
      <trkpt lat="44.03857" lon="2.29182">
        <ele>331.5</ele>
        <time>2018-04-23T13:10:06Z</time>
      </trkpt>
      <trkpt lat="44.03852" lon="2.29174">
        <ele>331.2</ele>
        <time>2018-04-23T13:10:12Z</time>
      </trkpt>
      <trkpt lat="44.03848" lon="2.29165">
        <ele>330.2</ele>
        <time>2018-04-23T13:10:17Z</time>
      </trkpt>
      <trkpt lat="44.03844" lon="2.29156">
        <ele>330.2</ele>
        <time>2018-04-23T13:10:23Z</time>
      </trkpt>
      <trkpt lat="44.03837" lon="2.2915">
        <ele>331.1</ele>
        <time>2018-04-23T13:10:30Z</time>
      </trkpt>
      <trkpt lat="44.03831" lon="2.2914">
        <ele>333</ele>
        <time>2018-04-23T13:10:35Z</time>
      </trkpt>
      <trkpt lat="44.03827" lon="2.29131">
        <ele>333.9</ele>
        <time>2018-04-23T13:10:41Z</time>
      </trkpt>
      <trkpt lat="44.03823" lon="2.29122">
        <ele>334</ele>
        <time>2018-04-23T13:10:48Z</time>
      </trkpt>
      <trkpt lat="44.03817" lon="2.29116">
        <ele>335.3</ele>
        <time>2018-04-23T13:10:55Z</time>
      </trkpt>
      <trkpt lat="44.03812" lon="2.29107">
        <ele>336.1</ele>
        <time>2018-04-23T13:11:02Z</time>
      </trkpt>
      <trkpt lat="44.03808" lon="2.29098">
        <ele>335.6</ele>
        <time>2018-04-23T13:11:08Z</time>
      </trkpt>
      <trkpt lat="44.03805" lon="2.29089">
        <ele>334.5</ele>
        <time>2018-04-23T13:11:13Z</time>
      </trkpt>
      <trkpt lat="44.038" lon="2.2908">
        <ele>332.8</ele>
        <time>2018-04-23T13:11:19Z</time>
      </trkpt>
      <trkpt lat="44.03795" lon="2.29071">
        <ele>330.7</ele>
        <time>2018-04-23T13:11:25Z</time>
      </trkpt>
      <trkpt lat="44.0379" lon="2.29062">
        <ele>330</ele>
        <time>2018-04-23T13:11:30Z</time>
      </trkpt>
      <trkpt lat="44.03786" lon="2.29053">
        <ele>329.8</ele>
        <time>2018-04-23T13:11:35Z</time>
      </trkpt>
      <trkpt lat="44.0378" lon="2.29046">
        <ele>329.3</ele>
        <time>2018-04-23T13:11:41Z</time>
      </trkpt>
      <trkpt lat="44.03774" lon="2.29041">
        <ele>328.8</ele>
        <time>2018-04-23T13:11:47Z</time>
      </trkpt>
      <trkpt lat="44.03767" lon="2.29036">
        <ele>328.3</ele>
        <time>2018-04-23T13:11:53Z</time>
      </trkpt>
      <trkpt lat="44.03761" lon="2.29029">
        <ele>328.5</ele>
        <time>2018-04-23T13:11:58Z</time>
      </trkpt>
      <trkpt lat="44.03754" lon="2.29025">
        <ele>329.3</ele>
        <time>2018-04-23T13:12:04Z</time>
      </trkpt>
      <trkpt lat="44.03746" lon="2.29019">
        <ele>330</ele>
        <time>2018-04-23T13:12:10Z</time>
      </trkpt>
      <trkpt lat="44.03739" lon="2.29016">
        <ele>330.6</ele>
        <time>2018-04-23T13:12:16Z</time>
      </trkpt>
      <trkpt lat="44.03733" lon="2.29014">
        <ele>330.3</ele>
        <time>2018-04-23T13:12:23Z</time>
      </trkpt>
      <trkpt lat="44.03726" lon="2.2901">
        <ele>329.3</ele>
        <time>2018-04-23T13:12:30Z</time>
      </trkpt>
      <trkpt lat="44.03719" lon="2.29007">
        <ele>328.1</ele>
        <time>2018-04-23T13:12:37Z</time>
      </trkpt>
      <trkpt lat="44.0371" lon="2.29007">
        <ele>326.1</ele>
        <time>2018-04-23T13:12:44Z</time>
      </trkpt>
      <trkpt lat="44.03703" lon="2.29006">
        <ele>323.8</ele>
        <time>2018-04-23T13:12:50Z</time>
      </trkpt>
      <trkpt lat="44.03696" lon="2.29003">
        <ele>322.4</ele>
        <time>2018-04-23T13:12:56Z</time>
      </trkpt>
      <trkpt lat="44.03689" lon="2.28997">
        <ele>321.5</ele>
        <time>2018-04-23T13:13:02Z</time>
      </trkpt>
      <trkpt lat="44.03681" lon="2.28996">
        <ele>320.9</ele>
        <time>2018-04-23T13:13:08Z</time>
      </trkpt>
      <trkpt lat="44.03674" lon="2.28995">
        <ele>320.2</ele>
        <time>2018-04-23T13:13:14Z</time>
      </trkpt>
      <trkpt lat="44.03667" lon="2.28989">
        <ele>319</ele>
        <time>2018-04-23T13:13:20Z</time>
      </trkpt>
      <trkpt lat="44.03661" lon="2.28984">
        <ele>318.6</ele>
        <time>2018-04-23T13:13:27Z</time>
      </trkpt>
      <trkpt lat="44.03656" lon="2.28976">
        <ele>318.3</ele>
        <time>2018-04-23T13:13:34Z</time>
      </trkpt>
      <trkpt lat="44.0365" lon="2.28969">
        <ele>318.1</ele>
        <time>2018-04-23T13:13:39Z</time>
      </trkpt>
      <trkpt lat="44.03642" lon="2.28963">
        <ele>317.8</ele>
        <time>2018-04-23T13:13:44Z</time>
      </trkpt>
      <trkpt lat="44.03636" lon="2.28959">
        <ele>316.8</ele>
        <time>2018-04-23T13:13:50Z</time>
      </trkpt>
      <trkpt lat="44.0363" lon="2.28952">
        <ele>315.2</ele>
        <time>2018-04-23T13:13:56Z</time>
      </trkpt>
      <trkpt lat="44.03622" lon="2.28949">
        <ele>312.6</ele>
        <time>2018-04-23T13:14:03Z</time>
      </trkpt>
      <trkpt lat="44.03613" lon="2.28947">
        <ele>311.3</ele>
        <time>2018-04-23T13:14:10Z</time>
      </trkpt>
      <trkpt lat="44.03606" lon="2.28947">
        <ele>311.5</ele>
        <time>2018-04-23T13:14:17Z</time>
      </trkpt>
      <trkpt lat="44.03601" lon="2.28949">
        <ele>312.3</ele>
        <time>2018-04-23T13:14:24Z</time>
      </trkpt>
      <trkpt lat="44.03593" lon="2.28947">
        <ele>314.3</ele>
        <time>2018-04-23T13:14:36Z</time>
      </trkpt>
      <trkpt lat="44.03587" lon="2.28946">
        <ele>314.1</ele>
        <time>2018-04-23T13:14:43Z</time>
      </trkpt>
      <trkpt lat="44.0358" lon="2.28941">
        <ele>314.1</ele>
        <time>2018-04-23T13:14:49Z</time>
      </trkpt>
      <trkpt lat="44.03573" lon="2.28939">
        <ele>312.7</ele>
        <time>2018-04-23T13:14:55Z</time>
      </trkpt>
      <trkpt lat="44.03565" lon="2.28938">
        <ele>310.4</ele>
        <time>2018-04-23T13:15:01Z</time>
      </trkpt>
      <trkpt lat="44.03557" lon="2.28936">
        <ele>307.7</ele>
        <time>2018-04-23T13:15:08Z</time>
      </trkpt>
      <trkpt lat="44.0355" lon="2.28938">
        <ele>305.5</ele>
        <time>2018-04-23T13:15:14Z</time>
      </trkpt>
      <trkpt lat="44.03542" lon="2.2894">
        <ele>302.4</ele>
        <time>2018-04-23T13:15:20Z</time>
      </trkpt>
      <trkpt lat="44.03534" lon="2.28943">
        <ele>299.4</ele>
        <time>2018-04-23T13:15:27Z</time>
      </trkpt>
      <trkpt lat="44.03526" lon="2.28945">
        <ele>296.4</ele>
        <time>2018-04-23T13:15:33Z</time>
      </trkpt>
      <trkpt lat="44.03519" lon="2.28949">
        <ele>293.4</ele>
        <time>2018-04-23T13:15:39Z</time>
      </trkpt>
      <trkpt lat="44.03511" lon="2.28953">
        <ele>291.4</ele>
        <time>2018-04-23T13:15:45Z</time>
      </trkpt>
      <trkpt lat="44.03503" lon="2.28952">
        <ele>289.3</ele>
        <time>2018-04-23T13:15:52Z</time>
      </trkpt>
      <trkpt lat="44.03497" lon="2.28947">
        <ele>286.7</ele>
        <time>2018-04-23T13:15:59Z</time>
      </trkpt>
      <trkpt lat="44.0349" lon="2.28942">
        <ele>286.5</ele>
        <time>2018-04-23T13:16:06Z</time>
      </trkpt>
      <trkpt lat="44.03485" lon="2.28936">
        <ele>285.4</ele>
        <time>2018-04-23T13:16:13Z</time>
      </trkpt>
      <trkpt lat="44.03479" lon="2.2893">
        <ele>285.5</ele>
        <time>2018-04-23T13:16:20Z</time>
      </trkpt>
      <trkpt lat="44.03473" lon="2.28924">
        <ele>286.7</ele>
        <time>2018-04-23T13:16:25Z</time>
      </trkpt>
      <trkpt lat="44.03468" lon="2.28915">
        <ele>286.6</ele>
        <time>2018-04-23T13:16:32Z</time>
      </trkpt>
      <trkpt lat="44.03461" lon="2.28908">
        <ele>286.4</ele>
        <time>2018-04-23T13:16:37Z</time>
      </trkpt>
      <trkpt lat="44.03455" lon="2.28901">
        <ele>287</ele>
        <time>2018-04-23T13:16:43Z</time>
      </trkpt>
      <trkpt lat="44.03448" lon="2.28895">
        <ele>286.7</ele>
        <time>2018-04-23T13:16:48Z</time>
      </trkpt>
      <trkpt lat="44.03442" lon="2.28887">
        <ele>286.1</ele>
        <time>2018-04-23T13:16:54Z</time>
      </trkpt>
      <trkpt lat="44.03436" lon="2.28879">
        <ele>286.6</ele>
        <time>2018-04-23T13:17:00Z</time>
      </trkpt>
      <trkpt lat="44.03432" lon="2.28871">
        <ele>287.2</ele>
        <time>2018-04-23T13:17:06Z</time>
      </trkpt>
      <trkpt lat="44.03431" lon="2.28862">
        <ele>288.7</ele>
        <time>2018-04-23T13:17:13Z</time>
      </trkpt>
      <trkpt lat="44.03426" lon="2.28854">
        <ele>288.6</ele>
        <time>2018-04-23T13:17:20Z</time>
      </trkpt>
      <trkpt lat="44.03423" lon="2.28848">
        <ele>288.7</ele>
        <time>2018-04-23T13:17:27Z</time>
      </trkpt>
      <trkpt lat="44.03418" lon="2.28842">
        <ele>288.5</ele>
        <time>2018-04-23T13:17:34Z</time>
      </trkpt>
      <trkpt lat="44.03414" lon="2.28839">
        <ele>288.5</ele>
        <time>2018-04-23T13:17:41Z</time>
      </trkpt>
      <trkpt lat="44.03412" lon="2.28842">
        <ele>287</ele>
        <time>2018-04-23T13:17:48Z</time>
      </trkpt>
      <trkpt lat="44.03411" lon="2.2885">
        <ele>284</ele>
        <time>2018-04-23T13:17:55Z</time>
      </trkpt>
      <trkpt lat="44.03412" lon="2.2886">
        <ele>281.1</ele>
        <time>2018-04-23T13:18:03Z</time>
      </trkpt>
      <trkpt lat="44.03415" lon="2.28869">
        <ele>278.3</ele>
        <time>2018-04-23T13:18:09Z</time>
      </trkpt>
      <trkpt lat="44.0342" lon="2.28878">
        <ele>274.6</ele>
        <time>2018-04-23T13:18:15Z</time>
      </trkpt>
      <trkpt lat="44.0342" lon="2.2889">
        <ele>272.4</ele>
        <time>2018-04-23T13:18:20Z</time>
      </trkpt>
      <trkpt lat="44.03423" lon="2.28902">
        <ele>270.6</ele>
        <time>2018-04-23T13:18:26Z</time>
      </trkpt>
      <trkpt lat="44.03424" lon="2.28913">
        <ele>270.3</ele>
        <time>2018-04-23T13:18:31Z</time>
      </trkpt>
      <trkpt lat="44.03427" lon="2.28921">
        <ele>268.4</ele>
        <time>2018-04-23T13:18:38Z</time>
      </trkpt>
      <trkpt lat="44.03432" lon="2.28929">
        <ele>266.1</ele>
        <time>2018-04-23T13:18:45Z</time>
      </trkpt>
      <trkpt lat="44.03437" lon="2.28937">
        <ele>264</ele>
        <time>2018-04-23T13:18:52Z</time>
      </trkpt>
      <trkpt lat="44.03442" lon="2.28944">
        <ele>262.7</ele>
        <time>2018-04-23T13:18:59Z</time>
      </trkpt>
      <trkpt lat="44.03448" lon="2.28951">
        <ele>261.6</ele>
        <time>2018-04-23T13:19:04Z</time>
      </trkpt>
      <trkpt lat="44.03453" lon="2.28958">
        <ele>261.1</ele>
        <time>2018-04-23T13:19:09Z</time>
      </trkpt>
      <trkpt lat="44.0346" lon="2.28962">
        <ele>259.8</ele>
        <time>2018-04-23T13:19:15Z</time>
      </trkpt>
      <trkpt lat="44.03464" lon="2.2897">
        <ele>259.2</ele>
        <time>2018-04-23T13:19:21Z</time>
      </trkpt>
      <trkpt lat="44.0347" lon="2.28973">
        <ele>258.5</ele>
        <time>2018-04-23T13:19:28Z</time>
      </trkpt>
      <trkpt lat="44.03475" lon="2.28976">
        <ele>257.7</ele>
        <time>2018-04-23T13:19:35Z</time>
      </trkpt>
      <trkpt lat="44.03482" lon="2.28983">
        <ele>257</ele>
        <time>2018-04-23T13:19:42Z</time>
      </trkpt>
      <trkpt lat="44.03484" lon="2.28984">
        <ele>256.6</ele>
        <time>2018-04-23T13:19:49Z</time>
      </trkpt>
      <trkpt lat="44.03485" lon="2.28987">
        <ele>255.4</ele>
        <time>2018-04-23T13:19:56Z</time>
      </trkpt>
      <trkpt lat="44.03488" lon="2.28991">
        <ele>254.8</ele>
        <time>2018-04-23T13:20:03Z</time>
      </trkpt>
      <trkpt lat="44.03494" lon="2.28994">
        <ele>254</ele>
        <time>2018-04-23T13:20:10Z</time>
      </trkpt>
      <trkpt lat="44.03499" lon="2.29002">
        <ele>253.4</ele>
        <time>2018-04-23T13:20:17Z</time>
      </trkpt>
      <trkpt lat="44.03505" lon="2.29009">
        <ele>252.8</ele>
        <time>2018-04-23T13:20:23Z</time>
      </trkpt>
      <trkpt lat="44.03509" lon="2.29017">
        <ele>250.5</ele>
        <time>2018-04-23T13:20:30Z</time>
      </trkpt>
      <trkpt lat="44.03512" lon="2.29025">
        <ele>249.9</ele>
        <time>2018-04-23T13:20:37Z</time>
      </trkpt>
      <trkpt lat="44.03511" lon="2.29036">
        <ele>250.5</ele>
        <time>2018-04-23T13:20:42Z</time>
      </trkpt>
      <trkpt lat="44.03512" lon="2.29047">
        <ele>251.2</ele>
        <time>2018-04-23T13:20:47Z</time>
      </trkpt>
      <trkpt lat="44.03515" lon="2.29057">
        <ele>250.9</ele>
        <time>2018-04-23T13:20:53Z</time>
      </trkpt>
      <trkpt lat="44.03515" lon="2.29067">
        <ele>250.9</ele>
        <time>2018-04-23T13:20:59Z</time>
      </trkpt>
      <trkpt lat="44.03515" lon="2.29078">
        <ele>251.3</ele>
        <time>2018-04-23T13:21:05Z</time>
      </trkpt>
      <trkpt lat="44.0352" lon="2.29086">
        <ele>252.1</ele>
        <time>2018-04-23T13:21:10Z</time>
      </trkpt>
      <trkpt lat="44.03522" lon="2.29094">
        <ele>252.4</ele>
        <time>2018-04-23T13:21:17Z</time>
      </trkpt>
      <trkpt lat="44.03523" lon="2.29105">
        <ele>253.2</ele>
        <time>2018-04-23T13:21:23Z</time>
      </trkpt>
      <trkpt lat="44.03523" lon="2.29117">
        <ele>253.7</ele>
        <time>2018-04-23T13:21:30Z</time>
      </trkpt>
      <trkpt lat="44.03522" lon="2.29125">
        <ele>252.7</ele>
        <time>2018-04-23T13:21:37Z</time>
      </trkpt>
      <trkpt lat="44.03522" lon="2.29131">
        <ele>252.5</ele>
        <time>2018-04-23T13:21:44Z</time>
      </trkpt>
      <trkpt lat="44.03518" lon="2.29144">
        <ele>253.4</ele>
        <time>2018-04-23T13:21:50Z</time>
      </trkpt>
      <trkpt lat="44.03515" lon="2.29155">
        <ele>253.7</ele>
        <time>2018-04-23T13:21:55Z</time>
      </trkpt>
      <trkpt lat="44.03512" lon="2.29165">
        <ele>254.6</ele>
        <time>2018-04-23T13:22:01Z</time>
      </trkpt>
      <trkpt lat="44.03511" lon="2.29178">
        <ele>254.7</ele>
        <time>2018-04-23T13:22:07Z</time>
      </trkpt>
      <trkpt lat="44.03507" lon="2.29187">
        <ele>256.9</ele>
        <time>2018-04-23T13:22:13Z</time>
      </trkpt>
      <trkpt lat="44.03501" lon="2.29195">
        <ele>260.1</ele>
        <time>2018-04-23T13:22:19Z</time>
      </trkpt>
      <trkpt lat="44.03496" lon="2.29204">
        <ele>262.9</ele>
        <time>2018-04-23T13:22:25Z</time>
      </trkpt>
      <trkpt lat="44.03491" lon="2.29212">
        <ele>265.2</ele>
        <time>2018-04-23T13:22:32Z</time>
      </trkpt>
      <trkpt lat="44.03488" lon="2.29217">
        <ele>263.7</ele>
        <time>2018-04-23T13:22:39Z</time>
      </trkpt>
      <trkpt lat="44.03485" lon="2.29222">
        <ele>263.1</ele>
        <time>2018-04-23T13:22:46Z</time>
      </trkpt>
      <trkpt lat="44.03479" lon="2.29231">
        <ele>263.5</ele>
        <time>2018-04-23T13:22:52Z</time>
      </trkpt>
      <trkpt lat="44.03478" lon="2.29233">
        <ele>262.5</ele>
        <time>2018-04-23T13:22:59Z</time>
      </trkpt>
      <trkpt lat="44.03474" lon="2.29236">
        <ele>265.1</ele>
        <time>2018-04-23T13:23:09Z</time>
      </trkpt>
      <trkpt lat="44.03466" lon="2.29247">
        <ele>278</ele>
        <time>2018-04-23T13:23:47Z</time>
      </trkpt>
      <trkpt lat="44.03459" lon="2.29241">
        <ele>280.2</ele>
        <time>2018-04-23T13:23:58Z</time>
      </trkpt>
      <trkpt lat="44.03452" lon="2.29237">
        <ele>280.6</ele>
        <time>2018-04-23T13:24:05Z</time>
      </trkpt>
      <trkpt lat="44.03447" lon="2.29236">
        <ele>280.3</ele>
        <time>2018-04-23T13:24:12Z</time>
      </trkpt>
      <trkpt lat="44.03441" lon="2.2924">
        <ele>278.6</ele>
        <time>2018-04-23T13:24:19Z</time>
      </trkpt>
      <trkpt lat="44.03437" lon="2.2924">
        <ele>276.9</ele>
        <time>2018-04-23T13:24:26Z</time>
      </trkpt>
      <trkpt lat="44.0343" lon="2.29241">
        <ele>273.5</ele>
        <time>2018-04-23T13:24:33Z</time>
      </trkpt>
      <trkpt lat="44.03423" lon="2.29244">
        <ele>271.4</ele>
        <time>2018-04-23T13:24:39Z</time>
      </trkpt>
      <trkpt lat="44.03417" lon="2.29243">
        <ele>269.7</ele>
        <time>2018-04-23T13:24:46Z</time>
      </trkpt>
      <trkpt lat="44.0341" lon="2.29248">
        <ele>268.1</ele>
        <time>2018-04-23T13:24:52Z</time>
      </trkpt>
      <trkpt lat="44.03404" lon="2.29248">
        <ele>265.5</ele>
        <time>2018-04-23T13:24:59Z</time>
      </trkpt>
      <trkpt lat="44.03399" lon="2.29248">
        <ele>263.1</ele>
        <time>2018-04-23T13:25:06Z</time>
      </trkpt>
      <trkpt lat="44.03393" lon="2.29256">
        <ele>265.4</ele>
        <time>2018-04-23T13:25:19Z</time>
      </trkpt>
      <trkpt lat="44.03389" lon="2.29259">
        <ele>265.2</ele>
        <time>2018-04-23T13:25:26Z</time>
      </trkpt>
      <trkpt lat="44.03383" lon="2.2926">
        <ele>265.2</ele>
        <time>2018-04-23T13:25:33Z</time>
      </trkpt>
      <trkpt lat="44.03375" lon="2.29262">
        <ele>266</ele>
        <time>2018-04-23T13:25:39Z</time>
      </trkpt>
      <trkpt lat="44.03369" lon="2.29262">
        <ele>264.9</ele>
        <time>2018-04-23T13:25:46Z</time>
      </trkpt>
      <trkpt lat="44.03363" lon="2.29267">
        <ele>264.6</ele>
        <time>2018-04-23T13:25:50Z</time>
      </trkpt>
      <trkpt lat="44.03356" lon="2.29271">
        <ele>262.9</ele>
        <time>2018-04-23T13:25:56Z</time>
      </trkpt>
      <trkpt lat="44.03349" lon="2.29274">
        <ele>262.9</ele>
        <time>2018-04-23T13:26:00Z</time>
      </trkpt>
      <trkpt lat="44.03339" lon="2.29276">
        <ele>262.8</ele>
        <time>2018-04-23T13:26:07Z</time>
      </trkpt>
      <trkpt lat="44.03333" lon="2.29282">
        <ele>263.2</ele>
        <time>2018-04-23T13:26:11Z</time>
      </trkpt>
      <trkpt lat="44.03325" lon="2.29283">
        <ele>263.1</ele>
        <time>2018-04-23T13:26:18Z</time>
      </trkpt>
      <trkpt lat="44.03319" lon="2.29289">
        <ele>263.5</ele>
        <time>2018-04-23T13:26:23Z</time>
      </trkpt>
      <trkpt lat="44.03311" lon="2.29293">
        <ele>263.1</ele>
        <time>2018-04-23T13:26:29Z</time>
      </trkpt>
      <trkpt lat="44.03304" lon="2.29297">
        <ele>263.1</ele>
        <time>2018-04-23T13:26:36Z</time>
      </trkpt>
      <trkpt lat="44.03297" lon="2.29299">
        <ele>263.5</ele>
        <time>2018-04-23T13:26:42Z</time>
      </trkpt>
      <trkpt lat="44.0329" lon="2.29306">
        <ele>264.6</ele>
        <time>2018-04-23T13:26:47Z</time>
      </trkpt>
      <trkpt lat="44.03282" lon="2.29308">
        <ele>264</ele>
        <time>2018-04-23T13:26:54Z</time>
      </trkpt>
      <trkpt lat="44.03275" lon="2.29312">
        <ele>262.2</ele>
        <time>2018-04-23T13:27:01Z</time>
      </trkpt>
      <trkpt lat="44.03267" lon="2.29315">
        <ele>260</ele>
        <time>2018-04-23T13:27:07Z</time>
      </trkpt>
      <trkpt lat="44.03259" lon="2.29315">
        <ele>258</ele>
        <time>2018-04-23T13:27:12Z</time>
      </trkpt>
      <trkpt lat="44.03251" lon="2.29315">
        <ele>255.9</ele>
        <time>2018-04-23T13:27:19Z</time>
      </trkpt>
      <trkpt lat="44.03242" lon="2.29316">
        <ele>254.1</ele>
        <time>2018-04-23T13:27:25Z</time>
      </trkpt>
      <trkpt lat="44.03234" lon="2.29317">
        <ele>253.4</ele>
        <time>2018-04-23T13:27:30Z</time>
      </trkpt>
      <trkpt lat="44.03226" lon="2.29314">
        <ele>253.5</ele>
        <time>2018-04-23T13:27:36Z</time>
      </trkpt>
      <trkpt lat="44.03219" lon="2.29314">
        <ele>256</ele>
        <time>2018-04-23T13:27:43Z</time>
      </trkpt>
      <trkpt lat="44.03212" lon="2.2931">
        <ele>254.3</ele>
        <time>2018-04-23T13:27:50Z</time>
      </trkpt>
      <trkpt lat="44.03203" lon="2.2931">
        <ele>252.9</ele>
        <time>2018-04-23T13:27:57Z</time>
      </trkpt>
      <trkpt lat="44.03193" lon="2.29312">
        <ele>254.2</ele>
        <time>2018-04-23T13:28:04Z</time>
      </trkpt>
      <trkpt lat="44.03184" lon="2.29314">
        <ele>255</ele>
        <time>2018-04-23T13:28:09Z</time>
      </trkpt>
      <trkpt lat="44.03177" lon="2.29316">
        <ele>255.3</ele>
        <time>2018-04-23T13:28:15Z</time>
      </trkpt>
      <trkpt lat="44.0317" lon="2.29324">
        <ele>256.6</ele>
        <time>2018-04-23T13:28:19Z</time>
      </trkpt>
      <trkpt lat="44.03164" lon="2.29329">
        <ele>258.7</ele>
        <time>2018-04-23T13:28:23Z</time>
      </trkpt>
      <trkpt lat="44.03159" lon="2.29326">
        <ele>258</ele>
        <time>2018-04-23T13:28:30Z</time>
      </trkpt>
      <trkpt lat="44.03152" lon="2.29329">
        <ele>257.1</ele>
        <time>2018-04-23T13:28:37Z</time>
      </trkpt>
      <trkpt lat="44.03142" lon="2.29336">
        <ele>257</ele>
        <time>2018-04-23T13:28:43Z</time>
      </trkpt>
      <trkpt lat="44.03136" lon="2.29337">
        <ele>255.4</ele>
        <time>2018-04-23T13:28:50Z</time>
      </trkpt>
      <trkpt lat="44.0313" lon="2.29343">
        <ele>253.4</ele>
        <time>2018-04-23T13:28:57Z</time>
      </trkpt>
      <trkpt lat="44.03125" lon="2.29353">
        <ele>254.6</ele>
        <time>2018-04-23T13:29:00Z</time>
      </trkpt>
      <trkpt lat="44.0312" lon="2.29361">
        <ele>255</ele>
        <time>2018-04-23T13:29:06Z</time>
      </trkpt>
      <trkpt lat="44.03118" lon="2.29364">
        <ele>255.3</ele>
        <time>2018-04-23T13:29:13Z</time>
      </trkpt>
      <trkpt lat="44.03114" lon="2.29375">
        <ele>254.7</ele>
        <time>2018-04-23T13:29:24Z</time>
      </trkpt>
      <trkpt lat="44.03111" lon="2.29385">
        <ele>257</ele>
        <time>2018-04-23T13:29:27Z</time>
      </trkpt>
      <trkpt lat="44.03111" lon="2.29396">
        <ele>258.3</ele>
        <time>2018-04-23T13:29:33Z</time>
      </trkpt>
      <trkpt lat="44.03114" lon="2.29404">
        <ele>257.6</ele>
        <time>2018-04-23T13:29:40Z</time>
      </trkpt>
      <trkpt lat="44.03115" lon="2.29416">
        <ele>257.1</ele>
        <time>2018-04-23T13:29:47Z</time>
      </trkpt>
      <trkpt lat="44.03119" lon="2.29425">
        <ele>256.5</ele>
        <time>2018-04-23T13:29:54Z</time>
      </trkpt>
      <trkpt lat="44.03121" lon="2.29437">
        <ele>256.9</ele>
        <time>2018-04-23T13:30:00Z</time>
      </trkpt>
      <trkpt lat="44.03126" lon="2.29444">
        <ele>256</ele>
        <time>2018-04-23T13:30:06Z</time>
      </trkpt>
      <trkpt lat="44.0313" lon="2.2945">
        <ele>254.6</ele>
        <time>2018-04-23T13:30:13Z</time>
      </trkpt>
      <trkpt lat="44.03133" lon="2.29461">
        <ele>253.6</ele>
        <time>2018-04-23T13:30:20Z</time>
      </trkpt>
      <trkpt lat="44.03136" lon="2.29471">
        <ele>253.2</ele>
        <time>2018-04-23T13:30:27Z</time>
      </trkpt>
      <trkpt lat="44.03141" lon="2.29483">
        <ele>252.7</ele>
        <time>2018-04-23T13:30:33Z</time>
      </trkpt>
      <trkpt lat="44.03145" lon="2.29493">
        <ele>252.1</ele>
        <time>2018-04-23T13:30:38Z</time>
      </trkpt>
      <trkpt lat="44.03148" lon="2.29503">
        <ele>251.9</ele>
        <time>2018-04-23T13:30:45Z</time>
      </trkpt>
      <trkpt lat="44.03152" lon="2.29513">
        <ele>251.8</ele>
        <time>2018-04-23T13:30:51Z</time>
      </trkpt>
      <trkpt lat="44.03157" lon="2.2952">
        <ele>250.7</ele>
        <time>2018-04-23T13:30:56Z</time>
      </trkpt>
      <trkpt lat="44.03162" lon="2.29528">
        <ele>250.1</ele>
        <time>2018-04-23T13:31:02Z</time>
      </trkpt>
      <trkpt lat="44.03169" lon="2.29533">
        <ele>249.3</ele>
        <time>2018-04-23T13:31:06Z</time>
      </trkpt>
      <trkpt lat="44.03175" lon="2.29542">
        <ele>249.3</ele>
        <time>2018-04-23T13:31:13Z</time>
      </trkpt>
      <trkpt lat="44.0318" lon="2.2955">
        <ele>248.9</ele>
        <time>2018-04-23T13:31:19Z</time>
      </trkpt>
      <trkpt lat="44.03186" lon="2.29556">
        <ele>248.8</ele>
        <time>2018-04-23T13:31:24Z</time>
      </trkpt>
      <trkpt lat="44.03193" lon="2.29564">
        <ele>248.6</ele>
        <time>2018-04-23T13:31:31Z</time>
      </trkpt>
      <trkpt lat="44.03199" lon="2.2957">
        <ele>247.7</ele>
        <time>2018-04-23T13:31:36Z</time>
      </trkpt>
      <trkpt lat="44.03201" lon="2.2958">
        <ele>247.3</ele>
        <time>2018-04-23T13:31:42Z</time>
      </trkpt>
      <trkpt lat="44.03206" lon="2.29588">
        <ele>247</ele>
        <time>2018-04-23T13:31:48Z</time>
      </trkpt>
      <trkpt lat="44.0321" lon="2.29598">
        <ele>246.7</ele>
        <time>2018-04-23T13:31:54Z</time>
      </trkpt>
      <trkpt lat="44.03214" lon="2.29607">
        <ele>245.6</ele>
        <time>2018-04-23T13:32:00Z</time>
      </trkpt>
      <trkpt lat="44.03217" lon="2.29618">
        <ele>245.2</ele>
        <time>2018-04-23T13:32:06Z</time>
      </trkpt>
      <trkpt lat="44.03221" lon="2.29627">
        <ele>244.6</ele>
        <time>2018-04-23T13:32:13Z</time>
      </trkpt>
      <trkpt lat="44.03228" lon="2.29631">
        <ele>242.7</ele>
        <time>2018-04-23T13:32:19Z</time>
      </trkpt>
      <trkpt lat="44.03235" lon="2.29636">
        <ele>240.2</ele>
        <time>2018-04-23T13:32:23Z</time>
      </trkpt>
      <trkpt lat="44.0324" lon="2.29645">
        <ele>238</ele>
        <time>2018-04-23T13:32:28Z</time>
      </trkpt>
      <trkpt lat="44.03243" lon="2.29656">
        <ele>237.6</ele>
        <time>2018-04-23T13:32:34Z</time>
      </trkpt>
      <trkpt lat="44.03248" lon="2.29666">
        <ele>238</ele>
        <time>2018-04-23T13:32:40Z</time>
      </trkpt>
      <trkpt lat="44.03252" lon="2.29675">
        <ele>238</ele>
        <time>2018-04-23T13:32:45Z</time>
      </trkpt>
      <trkpt lat="44.03256" lon="2.29682">
        <ele>235.9</ele>
        <time>2018-04-23T13:32:52Z</time>
      </trkpt>
      <trkpt lat="44.03255" lon="2.29692">
        <ele>234.8</ele>
        <time>2018-04-23T13:32:58Z</time>
      </trkpt>
      <trkpt lat="44.03258" lon="2.29703">
        <ele>235.6</ele>
        <time>2018-04-23T13:33:03Z</time>
      </trkpt>
      <trkpt lat="44.03257" lon="2.29714">
        <ele>237.8</ele>
        <time>2018-04-23T13:33:07Z</time>
      </trkpt>
      <trkpt lat="44.03257" lon="2.29723">
        <ele>236.3</ele>
        <time>2018-04-23T13:33:14Z</time>
      </trkpt>
      <trkpt lat="44.03256" lon="2.29735">
        <ele>234.4</ele>
        <time>2018-04-23T13:33:21Z</time>
      </trkpt>
      <trkpt lat="44.03255" lon="2.29746">
        <ele>233.8</ele>
        <time>2018-04-23T13:33:27Z</time>
      </trkpt>
      <trkpt lat="44.03255" lon="2.29758">
        <ele>236.6</ele>
        <time>2018-04-23T13:33:31Z</time>
      </trkpt>
      <trkpt lat="44.03256" lon="2.29769">
        <ele>238.3</ele>
        <time>2018-04-23T13:33:37Z</time>
      </trkpt>
      <trkpt lat="44.03257" lon="2.29778">
        <ele>239.9</ele>
        <time>2018-04-23T13:33:44Z</time>
      </trkpt>
      <trkpt lat="44.0326" lon="2.29779">
        <ele>242.2</ele>
        <time>2018-04-23T13:33:51Z</time>
      </trkpt>
      <trkpt lat="44.03256" lon="2.29789">
        <ele>248.1</ele>
        <time>2018-04-23T13:34:00Z</time>
      </trkpt>
      <trkpt lat="44.03257" lon="2.298">
        <ele>249</ele>
        <time>2018-04-23T13:34:07Z</time>
      </trkpt>
      <trkpt lat="44.03256" lon="2.29809">
        <ele>248.7</ele>
        <time>2018-04-23T13:34:14Z</time>
      </trkpt>
      <trkpt lat="44.03261" lon="2.29817">
        <ele>249.3</ele>
        <time>2018-04-23T13:34:19Z</time>
      </trkpt>
      <trkpt lat="44.0326" lon="2.29827">
        <ele>249.3</ele>
        <time>2018-04-23T13:34:24Z</time>
      </trkpt>
      <trkpt lat="44.03262" lon="2.29839">
        <ele>251.6</ele>
        <time>2018-04-23T13:34:29Z</time>
      </trkpt>
      <trkpt lat="44.03261" lon="2.29852">
        <ele>253.5</ele>
        <time>2018-04-23T13:34:35Z</time>
      </trkpt>
      <trkpt lat="44.03259" lon="2.29863">
        <ele>256</ele>
        <time>2018-04-23T13:34:40Z</time>
      </trkpt>
      <trkpt lat="44.03258" lon="2.2987">
        <ele>255.6</ele>
        <time>2018-04-23T13:34:47Z</time>
      </trkpt>
      <trkpt lat="44.03257" lon="2.2988">
        <ele>254.7</ele>
        <time>2018-04-23T13:34:54Z</time>
      </trkpt>
      <trkpt lat="44.03255" lon="2.29891">
        <ele>256</ele>
        <time>2018-04-23T13:34:57Z</time>
      </trkpt>
      <trkpt lat="44.03252" lon="2.29902">
        <ele>256.7</ele>
        <time>2018-04-23T13:35:03Z</time>
      </trkpt>
      <trkpt lat="44.03247" lon="2.29912">
        <ele>257.3</ele>
        <time>2018-04-23T13:35:07Z</time>
      </trkpt>
      <trkpt lat="44.03243" lon="2.29922">
        <ele>257.3</ele>
        <time>2018-04-23T13:35:13Z</time>
      </trkpt>
      <trkpt lat="44.03242" lon="2.29933">
        <ele>257.2</ele>
        <time>2018-04-23T13:35:18Z</time>
      </trkpt>
      <trkpt lat="44.03239" lon="2.29943">
        <ele>257.1</ele>
        <time>2018-04-23T13:35:24Z</time>
      </trkpt>
      <trkpt lat="44.03236" lon="2.29954">
        <ele>257.4</ele>
        <time>2018-04-23T13:35:29Z</time>
      </trkpt>
      <trkpt lat="44.0323" lon="2.29963">
        <ele>258.1</ele>
        <time>2018-04-23T13:35:34Z</time>
      </trkpt>
      <trkpt lat="44.03226" lon="2.29974">
        <ele>257.9</ele>
        <time>2018-04-23T13:35:41Z</time>
      </trkpt>
      <trkpt lat="44.03224" lon="2.29984">
        <ele>258.1</ele>
        <time>2018-04-23T13:35:45Z</time>
      </trkpt>
      <trkpt lat="44.03223" lon="2.29995">
        <ele>258.1</ele>
        <time>2018-04-23T13:35:51Z</time>
      </trkpt>
      <trkpt lat="44.03223" lon="2.30006">
        <ele>258.8</ele>
        <time>2018-04-23T13:35:55Z</time>
      </trkpt>
      <trkpt lat="44.03224" lon="2.30016">
        <ele>260.3</ele>
        <time>2018-04-23T13:36:01Z</time>
      </trkpt>
      <trkpt lat="44.03231" lon="2.30025">
        <ele>261.5</ele>
        <time>2018-04-23T13:36:07Z</time>
      </trkpt>
      <trkpt lat="44.03235" lon="2.30029">
        <ele>261.6</ele>
        <time>2018-04-23T13:36:14Z</time>
      </trkpt>
      <trkpt lat="44.03237" lon="2.30034">
        <ele>261.4</ele>
        <time>2018-04-23T13:36:21Z</time>
      </trkpt>
      <trkpt lat="44.0324" lon="2.30033">
        <ele>260.5</ele>
        <time>2018-04-23T13:36:55Z</time>
      </trkpt>
      <trkpt lat="44.03241" lon="2.30035">
        <ele>260.5</ele>
        <time>2018-04-23T13:37:02Z</time>
      </trkpt>
      <trkpt lat="44.03246" lon="2.30045">
        <ele>259.7</ele>
        <time>2018-04-23T13:37:13Z</time>
      </trkpt>
      <trkpt lat="44.03248" lon="2.30055">
        <ele>259.4</ele>
        <time>2018-04-23T13:37:20Z</time>
      </trkpt>
      <trkpt lat="44.03251" lon="2.30058">
        <ele>259.9</ele>
        <time>2018-04-23T13:37:27Z</time>
      </trkpt>
      <trkpt lat="44.03254" lon="2.30063">
        <ele>261.3</ele>
        <time>2018-04-23T13:37:34Z</time>
      </trkpt>
      <trkpt lat="44.03257" lon="2.30071">
        <ele>263.9</ele>
        <time>2018-04-23T13:37:41Z</time>
      </trkpt>
      <trkpt lat="44.03261" lon="2.30078">
        <ele>265.2</ele>
        <time>2018-04-23T13:37:48Z</time>
      </trkpt>
      <trkpt lat="44.03266" lon="2.30086">
        <ele>265.8</ele>
        <time>2018-04-23T13:37:55Z</time>
      </trkpt>
      <trkpt lat="44.03273" lon="2.3009">
        <ele>267.4</ele>
        <time>2018-04-23T13:38:00Z</time>
      </trkpt>
      <trkpt lat="44.03278" lon="2.30097">
        <ele>270.2</ele>
        <time>2018-04-23T13:38:07Z</time>
      </trkpt>
      <trkpt lat="44.03283" lon="2.30103">
        <ele>273.3</ele>
        <time>2018-04-23T13:38:14Z</time>
      </trkpt>
      <trkpt lat="44.03285" lon="2.30113">
        <ele>275.7</ele>
        <time>2018-04-23T13:38:20Z</time>
      </trkpt>
      <trkpt lat="44.03286" lon="2.30123">
        <ele>278.4</ele>
        <time>2018-04-23T13:38:24Z</time>
      </trkpt>
      <trkpt lat="44.03286" lon="2.30133">
        <ele>280.7</ele>
        <time>2018-04-23T13:38:29Z</time>
      </trkpt>
      <trkpt lat="44.03288" lon="2.30143">
        <ele>282.7</ele>
        <time>2018-04-23T13:38:33Z</time>
      </trkpt>
      <trkpt lat="44.03288" lon="2.30154">
        <ele>285.5</ele>
        <time>2018-04-23T13:38:38Z</time>
      </trkpt>
      <trkpt lat="44.03287" lon="2.30165">
        <ele>287.6</ele>
        <time>2018-04-23T13:38:45Z</time>
      </trkpt>
      <trkpt lat="44.03287" lon="2.30169">
        <ele>289</ele>
        <time>2018-04-23T13:38:52Z</time>
      </trkpt>
      <trkpt lat="44.0329" lon="2.30173">
        <ele>286.1</ele>
        <time>2018-04-23T13:39:22Z</time>
      </trkpt>
      <trkpt lat="44.03293" lon="2.30173">
        <ele>283.7</ele>
        <time>2018-04-23T13:39:29Z</time>
      </trkpt>
      <trkpt lat="44.03291" lon="2.30195">
        <ele>284.8</ele>
        <time>2018-04-23T13:40:09Z</time>
      </trkpt>
      <trkpt lat="44.03294" lon="2.30204">
        <ele>285.5</ele>
        <time>2018-04-23T13:40:16Z</time>
      </trkpt>
      <trkpt lat="44.033" lon="2.30208">
        <ele>286.3</ele>
        <time>2018-04-23T13:40:23Z</time>
      </trkpt>
      <trkpt lat="44.03306" lon="2.30216">
        <ele>287.6</ele>
        <time>2018-04-23T13:40:30Z</time>
      </trkpt>
      <trkpt lat="44.0331" lon="2.30216">
        <ele>289.4</ele>
        <time>2018-04-23T13:40:37Z</time>
      </trkpt>
      <trkpt lat="44.03317" lon="2.30211">
        <ele>297.1</ele>
        <time>2018-04-23T13:45:46Z</time>
      </trkpt>
      <trkpt lat="44.03318" lon="2.30214">
        <ele>295.1</ele>
        <time>2018-04-23T13:46:49Z</time>
      </trkpt>
      <trkpt lat="44.03321" lon="2.3022">
        <ele>295.3</ele>
        <time>2018-04-23T13:46:56Z</time>
      </trkpt>
      <trkpt lat="44.03321" lon="2.30223">
        <ele>295.4</ele>
        <time>2018-04-23T13:47:03Z</time>
      </trkpt>
      <trkpt lat="44.0332" lon="2.30227">
        <ele>295.2</ele>
        <time>2018-04-23T13:47:10Z</time>
      </trkpt>
      <trkpt lat="44.03322" lon="2.30237">
        <ele>295.3</ele>
        <time>2018-04-23T13:47:26Z</time>
      </trkpt>
      <trkpt lat="44.03327" lon="2.30244">
        <ele>295.1</ele>
        <time>2018-04-23T13:47:33Z</time>
      </trkpt>
      <trkpt lat="44.03333" lon="2.3025">
        <ele>293.4</ele>
        <time>2018-04-23T13:47:40Z</time>
      </trkpt>
      <trkpt lat="44.03339" lon="2.30259">
        <ele>291.6</ele>
        <time>2018-04-23T13:47:45Z</time>
      </trkpt>
      <trkpt lat="44.03343" lon="2.30268">
        <ele>290.7</ele>
        <time>2018-04-23T13:47:51Z</time>
      </trkpt>
      <trkpt lat="44.03346" lon="2.30278">
        <ele>289.9</ele>
        <time>2018-04-23T13:47:59Z</time>
      </trkpt>
      <trkpt lat="44.03349" lon="2.30283">
        <ele>289.2</ele>
        <time>2018-04-23T13:48:06Z</time>
      </trkpt>
      <trkpt lat="44.03356" lon="2.30286">
        <ele>287.3</ele>
        <time>2018-04-23T13:48:13Z</time>
      </trkpt>
      <trkpt lat="44.03364" lon="2.3029">
        <ele>285.8</ele>
        <time>2018-04-23T13:48:19Z</time>
      </trkpt>
      <trkpt lat="44.03372" lon="2.3029">
        <ele>284.6</ele>
        <time>2018-04-23T13:48:24Z</time>
      </trkpt>
      <trkpt lat="44.0338" lon="2.30291">
        <ele>284</ele>
        <time>2018-04-23T13:48:28Z</time>
      </trkpt>
      <trkpt lat="44.03388" lon="2.30293">
        <ele>283.9</ele>
        <time>2018-04-23T13:48:33Z</time>
      </trkpt>
      <trkpt lat="44.03396" lon="2.30295">
        <ele>284.6</ele>
        <time>2018-04-23T13:48:39Z</time>
      </trkpt>
      <trkpt lat="44.03404" lon="2.30297">
        <ele>285.4</ele>
        <time>2018-04-23T13:48:46Z</time>
      </trkpt>
      <trkpt lat="44.03413" lon="2.30298">
        <ele>286.1</ele>
        <time>2018-04-23T13:48:53Z</time>
      </trkpt>
      <trkpt lat="44.0342" lon="2.30294">
        <ele>287.1</ele>
        <time>2018-04-23T13:48:59Z</time>
      </trkpt>
      <trkpt lat="44.03428" lon="2.30296">
        <ele>287.8</ele>
        <time>2018-04-23T13:49:06Z</time>
      </trkpt>
      <trkpt lat="44.03435" lon="2.30301">
        <ele>288.7</ele>
        <time>2018-04-23T13:49:10Z</time>
      </trkpt>
      <trkpt lat="44.03441" lon="2.30305">
        <ele>288</ele>
        <time>2018-04-23T13:49:14Z</time>
      </trkpt>
      <trkpt lat="44.03448" lon="2.30311">
        <ele>288.1</ele>
        <time>2018-04-23T13:49:19Z</time>
      </trkpt>
      <trkpt lat="44.03452" lon="2.30319">
        <ele>288</ele>
        <time>2018-04-23T13:49:25Z</time>
      </trkpt>
      <trkpt lat="44.03455" lon="2.30324">
        <ele>289.1</ele>
        <time>2018-04-23T13:49:32Z</time>
      </trkpt>
      <trkpt lat="44.03459" lon="2.30332">
        <ele>290.7</ele>
        <time>2018-04-23T13:49:48Z</time>
      </trkpt>
      <trkpt lat="44.03458" lon="2.3034">
        <ele>289.6</ele>
        <time>2018-04-23T13:49:55Z</time>
      </trkpt>
      <trkpt lat="44.03459" lon="2.30342">
        <ele>289.4</ele>
        <time>2018-04-23T13:50:02Z</time>
      </trkpt>
      <trkpt lat="44.03462" lon="2.30347">
        <ele>288.8</ele>
        <time>2018-04-23T13:50:16Z</time>
      </trkpt>
      <trkpt lat="44.03464" lon="2.30346">
        <ele>286.7</ele>
        <time>2018-04-23T13:50:32Z</time>
      </trkpt>
      <trkpt lat="44.03471" lon="2.30352">
        <ele>285.9</ele>
        <time>2018-04-23T13:50:37Z</time>
      </trkpt>
      <trkpt lat="44.03477" lon="2.30356">
        <ele>286.7</ele>
        <time>2018-04-23T13:50:44Z</time>
      </trkpt>
      <trkpt lat="44.03483" lon="2.3036">
        <ele>288.5</ele>
        <time>2018-04-23T13:50:51Z</time>
      </trkpt>
      <trkpt lat="44.03489" lon="2.30363">
        <ele>290.3</ele>
        <time>2018-04-23T13:50:58Z</time>
      </trkpt>
      <trkpt lat="44.03495" lon="2.30364">
        <ele>291.1</ele>
        <time>2018-04-23T13:51:05Z</time>
      </trkpt>
      <trkpt lat="44.03501" lon="2.30363">
        <ele>291.4</ele>
        <time>2018-04-23T13:51:12Z</time>
      </trkpt>
      <trkpt lat="44.03507" lon="2.3036">
        <ele>292.3</ele>
        <time>2018-04-23T13:51:19Z</time>
      </trkpt>
      <trkpt lat="44.03514" lon="2.30358">
        <ele>292.8</ele>
        <time>2018-04-23T13:51:25Z</time>
      </trkpt>
      <trkpt lat="44.03522" lon="2.30356">
        <ele>293.4</ele>
        <time>2018-04-23T13:51:31Z</time>
      </trkpt>
      <trkpt lat="44.0353" lon="2.30356">
        <ele>294.1</ele>
        <time>2018-04-23T13:51:38Z</time>
      </trkpt>
      <trkpt lat="44.03537" lon="2.30355">
        <ele>294.7</ele>
        <time>2018-04-23T13:51:45Z</time>
      </trkpt>
      <trkpt lat="44.03544" lon="2.30356">
        <ele>294.8</ele>
        <time>2018-04-23T13:51:50Z</time>
      </trkpt>
      <trkpt lat="44.03553" lon="2.30356">
        <ele>295.3</ele>
        <time>2018-04-23T13:51:55Z</time>
      </trkpt>
      <trkpt lat="44.03561" lon="2.30357">
        <ele>295.8</ele>
        <time>2018-04-23T13:52:01Z</time>
      </trkpt>
      <trkpt lat="44.03568" lon="2.30359">
        <ele>296.8</ele>
        <time>2018-04-23T13:52:06Z</time>
      </trkpt>
      <trkpt lat="44.03576" lon="2.30361">
        <ele>297.7</ele>
        <time>2018-04-23T13:52:12Z</time>
      </trkpt>
      <trkpt lat="44.03584" lon="2.30364">
        <ele>298.4</ele>
        <time>2018-04-23T13:52:18Z</time>
      </trkpt>
      <trkpt lat="44.03592" lon="2.30366">
        <ele>298.4</ele>
        <time>2018-04-23T13:52:24Z</time>
      </trkpt>
      <trkpt lat="44.03599" lon="2.30368">
        <ele>299.4</ele>
        <time>2018-04-23T13:52:31Z</time>
      </trkpt>
      <trkpt lat="44.03606" lon="2.30372">
        <ele>298.9</ele>
        <time>2018-04-23T13:52:38Z</time>
      </trkpt>
      <trkpt lat="44.03614" lon="2.30375">
        <ele>297.8</ele>
        <time>2018-04-23T13:52:43Z</time>
      </trkpt>
      <trkpt lat="44.03622" lon="2.30378">
        <ele>296.3</ele>
        <time>2018-04-23T13:52:49Z</time>
      </trkpt>
      <trkpt lat="44.03629" lon="2.3038">
        <ele>294.9</ele>
        <time>2018-04-23T13:52:55Z</time>
      </trkpt>
      <trkpt lat="44.03638" lon="2.30384">
        <ele>293.3</ele>
        <time>2018-04-23T13:53:01Z</time>
      </trkpt>
      <trkpt lat="44.03644" lon="2.30389">
        <ele>292.8</ele>
        <time>2018-04-23T13:53:06Z</time>
      </trkpt>
      <trkpt lat="44.03652" lon="2.30393">
        <ele>292.4</ele>
        <time>2018-04-23T13:53:11Z</time>
      </trkpt>
      <trkpt lat="44.03659" lon="2.30397">
        <ele>291.8</ele>
        <time>2018-04-23T13:53:16Z</time>
      </trkpt>
      <trkpt lat="44.03667" lon="2.30401">
        <ele>293.1</ele>
        <time>2018-04-23T13:53:20Z</time>
      </trkpt>
      <trkpt lat="44.03674" lon="2.30407">
        <ele>293.2</ele>
        <time>2018-04-23T13:53:26Z</time>
      </trkpt>
      <trkpt lat="44.03679" lon="2.30413">
        <ele>293.8</ele>
        <time>2018-04-23T13:53:31Z</time>
      </trkpt>
      <trkpt lat="44.03686" lon="2.3042">
        <ele>293.8</ele>
        <time>2018-04-23T13:53:37Z</time>
      </trkpt>
      <trkpt lat="44.03693" lon="2.30426">
        <ele>293</ele>
        <time>2018-04-23T13:53:43Z</time>
      </trkpt>
      <trkpt lat="44.03702" lon="2.30428">
        <ele>293</ele>
        <time>2018-04-23T13:53:50Z</time>
      </trkpt>
      <trkpt lat="44.03706" lon="2.3043">
        <ele>293.1</ele>
        <time>2018-04-23T13:53:57Z</time>
      </trkpt>
      <trkpt lat="44.03707" lon="2.30431">
        <ele>293.5</ele>
        <time>2018-04-23T13:54:04Z</time>
      </trkpt>
      <trkpt lat="44.03717" lon="2.30434">
        <ele>294.2</ele>
        <time>2018-04-23T13:54:33Z</time>
      </trkpt>
      <trkpt lat="44.03723" lon="2.30435">
        <ele>293.8</ele>
        <time>2018-04-23T13:54:42Z</time>
      </trkpt>
      <trkpt lat="44.0373" lon="2.30442">
        <ele>293.8</ele>
        <time>2018-04-23T13:54:49Z</time>
      </trkpt>
      <trkpt lat="44.03733" lon="2.30447">
        <ele>293.8</ele>
        <time>2018-04-23T13:54:56Z</time>
      </trkpt>
      <trkpt lat="44.03739" lon="2.30459">
        <ele>295.8</ele>
        <time>2018-04-23T13:55:06Z</time>
      </trkpt>
      <trkpt lat="44.03741" lon="2.30469">
        <ele>296.2</ele>
        <time>2018-04-23T13:55:12Z</time>
      </trkpt>
      <trkpt lat="44.03741" lon="2.30478">
        <ele>294.9</ele>
        <time>2018-04-23T13:55:19Z</time>
      </trkpt>
      <trkpt lat="44.03745" lon="2.30487">
        <ele>294</ele>
        <time>2018-04-23T13:55:26Z</time>
      </trkpt>
      <trkpt lat="44.03753" lon="2.30489">
        <ele>294.9</ele>
        <time>2018-04-23T13:55:41Z</time>
      </trkpt>
      <trkpt lat="44.03755" lon="2.3049">
        <ele>296.1</ele>
        <time>2018-04-23T13:55:48Z</time>
      </trkpt>
      <trkpt lat="44.03752" lon="2.305">
        <ele>294.8</ele>
        <time>2018-04-23T13:56:07Z</time>
      </trkpt>
      <trkpt lat="44.03755" lon="2.30507">
        <ele>296.3</ele>
        <time>2018-04-23T13:56:14Z</time>
      </trkpt>
      <trkpt lat="44.03755" lon="2.30515">
        <ele>297.3</ele>
        <time>2018-04-23T13:56:21Z</time>
      </trkpt>
      <trkpt lat="44.03757" lon="2.30523">
        <ele>298.1</ele>
        <time>2018-04-23T13:56:28Z</time>
      </trkpt>
      <trkpt lat="44.03762" lon="2.30528">
        <ele>299.1</ele>
        <time>2018-04-23T13:56:35Z</time>
      </trkpt>
      <trkpt lat="44.03768" lon="2.30528">
        <ele>300.2</ele>
        <time>2018-04-23T13:56:42Z</time>
      </trkpt>
      <trkpt lat="44.03772" lon="2.30524">
        <ele>300.7</ele>
        <time>2018-04-23T13:56:49Z</time>
      </trkpt>
      <trkpt lat="44.03775" lon="2.30522">
        <ele>301.1</ele>
        <time>2018-04-23T13:56:56Z</time>
      </trkpt>
      <trkpt lat="44.03779" lon="2.30522">
        <ele>301.6</ele>
        <time>2018-04-23T13:57:03Z</time>
      </trkpt>
      <trkpt lat="44.03778" lon="2.30527">
        <ele>302.9</ele>
        <time>2018-04-23T13:57:10Z</time>
      </trkpt>
      <trkpt lat="44.03784" lon="2.3053">
        <ele>304.1</ele>
        <time>2018-04-23T13:57:17Z</time>
      </trkpt>
      <trkpt lat="44.03789" lon="2.30531">
        <ele>305.3</ele>
        <time>2018-04-23T13:57:24Z</time>
      </trkpt>
      <trkpt lat="44.03794" lon="2.3053">
        <ele>306.2</ele>
        <time>2018-04-23T13:57:31Z</time>
      </trkpt>
      <trkpt lat="44.038" lon="2.30523">
        <ele>305.9</ele>
        <time>2018-04-23T13:57:38Z</time>
      </trkpt>
      <trkpt lat="44.03804" lon="2.30517">
        <ele>305.3</ele>
        <time>2018-04-23T13:57:45Z</time>
      </trkpt>
      <trkpt lat="44.0381" lon="2.30511">
        <ele>305</ele>
        <time>2018-04-23T13:57:52Z</time>
      </trkpt>
      <trkpt lat="44.03813" lon="2.30509">
        <ele>304.7</ele>
        <time>2018-04-23T13:57:59Z</time>
      </trkpt>
      <trkpt lat="44.03814" lon="2.30506">
        <ele>304.2</ele>
        <time>2018-04-23T13:58:06Z</time>
      </trkpt>
      <trkpt lat="44.03815" lon="2.30509">
        <ele>303.3</ele>
        <time>2018-04-23T13:58:13Z</time>
      </trkpt>
      <trkpt lat="44.03817" lon="2.3051">
        <ele>303.1</ele>
        <time>2018-04-23T13:58:20Z</time>
      </trkpt>
      <trkpt lat="44.03812" lon="2.30514">
        <ele>303.3</ele>
        <time>2018-04-23T13:58:40Z</time>
      </trkpt>
      <trkpt lat="44.03811" lon="2.30523">
        <ele>303.4</ele>
        <time>2018-04-23T13:58:48Z</time>
      </trkpt>
      <trkpt lat="44.03817" lon="2.30532">
        <ele>303.8</ele>
        <time>2018-04-23T13:58:53Z</time>
      </trkpt>
      <trkpt lat="44.03821" lon="2.30537">
        <ele>304</ele>
        <time>2018-04-23T13:59:00Z</time>
      </trkpt>
      <trkpt lat="44.03825" lon="2.30541">
        <ele>305.3</ele>
        <time>2018-04-23T13:59:07Z</time>
      </trkpt>
      <trkpt lat="44.03829" lon="2.30543">
        <ele>310.7</ele>
        <time>2018-04-23T13:59:32Z</time>
      </trkpt>
      <trkpt lat="44.0383" lon="2.30542">
        <ele>312.5</ele>
        <time>2018-04-23T13:59:39Z</time>
      </trkpt>
      <trkpt lat="44.03834" lon="2.30551">
        <ele>314.5</ele>
        <time>2018-04-23T13:59:57Z</time>
      </trkpt>
      <trkpt lat="44.03837" lon="2.30555">
        <ele>315</ele>
        <time>2018-04-23T14:00:04Z</time>
      </trkpt>
      <trkpt lat="44.03838" lon="2.30555">
        <ele>316</ele>
        <time>2018-04-23T14:00:11Z</time>
      </trkpt>
      <trkpt lat="44.03843" lon="2.30559">
        <ele>320.2</ele>
        <time>2018-04-23T14:00:29Z</time>
      </trkpt>
      <trkpt lat="44.03845" lon="2.30563">
        <ele>322.4</ele>
        <time>2018-04-23T14:00:36Z</time>
      </trkpt>
      <trkpt lat="44.03853" lon="2.30568">
        <ele>324.8</ele>
        <time>2018-04-23T14:00:42Z</time>
      </trkpt>
      <trkpt lat="44.03861" lon="2.30572">
        <ele>326.9</ele>
        <time>2018-04-23T14:00:48Z</time>
      </trkpt>
      <trkpt lat="44.03864" lon="2.30576">
        <ele>327.9</ele>
        <time>2018-04-23T14:00:55Z</time>
      </trkpt>
      <trkpt lat="44.03867" lon="2.3058">
        <ele>328.6</ele>
        <time>2018-04-23T14:01:02Z</time>
      </trkpt>
      <trkpt lat="44.03869" lon="2.30581">
        <ele>330.1</ele>
        <time>2018-04-23T14:01:09Z</time>
      </trkpt>
      <trkpt lat="44.03868" lon="2.30583">
        <ele>334.2</ele>
        <time>2018-04-23T14:01:32Z</time>
      </trkpt>
      <trkpt lat="44.03863" lon="2.30584">
        <ele>335</ele>
        <time>2018-04-23T14:01:42Z</time>
      </trkpt>
      <trkpt lat="44.03866" lon="2.3059">
        <ele>335.4</ele>
        <time>2018-04-23T14:01:49Z</time>
      </trkpt>
      <trkpt lat="44.03865" lon="2.30591">
        <ele>335.7</ele>
        <time>2018-04-23T14:01:56Z</time>
      </trkpt>
      <trkpt lat="44.03864" lon="2.30591">
        <ele>340.1</ele>
        <time>2018-04-23T14:02:41Z</time>
      </trkpt>
      <trkpt lat="44.03869" lon="2.30592">
        <ele>347.3</ele>
        <time>2018-04-23T14:03:25Z</time>
      </trkpt>
      <trkpt lat="44.03874" lon="2.30586">
        <ele>349.3</ele>
        <time>2018-04-23T14:02:59Z</time>
      </trkpt>
      <trkpt lat="44.03878" lon="2.30583">
        <ele>350.9</ele>
        <time>2018-04-23T14:04:12Z</time>
      </trkpt>
      <trkpt lat="44.03875" lon="2.30577">
        <ele>351.5</ele>
        <time>2018-04-23T14:04:19Z</time>
      </trkpt>
      <trkpt lat="44.03869" lon="2.30571">
        <ele>351.6</ele>
        <time>2018-04-23T14:04:26Z</time>
      </trkpt>
      <trkpt lat="44.03862" lon="2.30569">
        <ele>351.5</ele>
        <time>2018-04-23T14:04:33Z</time>
      </trkpt>
      <trkpt lat="44.03858" lon="2.30565">
        <ele>351.8</ele>
        <time>2018-04-23T14:04:40Z</time>
      </trkpt>
      <trkpt lat="44.03856" lon="2.30563">
        <ele>351.6</ele>
        <time>2018-04-23T14:04:47Z</time>
      </trkpt>
      <trkpt lat="44.03853" lon="2.3056">
        <ele>350.8</ele>
        <time>2018-04-23T14:04:54Z</time>
      </trkpt>
      <trkpt lat="44.03853" lon="2.30555">
        <ele>350.5</ele>
        <time>2018-04-23T14:05:06Z</time>
      </trkpt>
      <trkpt lat="44.03848" lon="2.30553">
        <ele>350.4</ele>
        <time>2018-04-23T14:05:13Z</time>
      </trkpt>
      <trkpt lat="44.03844" lon="2.30553">
        <ele>350.1</ele>
        <time>2018-04-23T14:05:20Z</time>
      </trkpt>
      <trkpt lat="44.03839" lon="2.30552">
        <ele>349.6</ele>
        <time>2018-04-23T14:05:27Z</time>
      </trkpt>
      <trkpt lat="44.03835" lon="2.3055">
        <ele>349.1</ele>
        <time>2018-04-23T14:05:34Z</time>
      </trkpt>
      <trkpt lat="44.03833" lon="2.3055">
        <ele>348.7</ele>
        <time>2018-04-23T14:05:41Z</time>
      </trkpt>
      <trkpt lat="44.03833" lon="2.30551">
        <ele>347.9</ele>
        <time>2018-04-23T14:05:48Z</time>
      </trkpt>
      <trkpt lat="44.03835" lon="2.30558">
        <ele>345.5</ele>
        <time>2018-04-23T14:06:03Z</time>
      </trkpt>
      <trkpt lat="44.03835" lon="2.30557">
        <ele>344.1</ele>
        <time>2018-04-23T14:06:10Z</time>
      </trkpt>
      <trkpt lat="44.03834" lon="2.30554">
        <ele>342.6</ele>
        <time>2018-04-23T14:06:17Z</time>
      </trkpt>
      <trkpt lat="44.03833" lon="2.30549">
        <ele>341.1</ele>
        <time>2018-04-23T14:06:24Z</time>
      </trkpt>
      <trkpt lat="44.0383" lon="2.30542">
        <ele>339.6</ele>
        <time>2018-04-23T14:06:31Z</time>
      </trkpt>
      <trkpt lat="44.03833" lon="2.30532">
        <ele>337.7</ele>
        <time>2018-04-23T14:06:38Z</time>
      </trkpt>
      <trkpt lat="44.03835" lon="2.30522">
        <ele>335.4</ele>
        <time>2018-04-23T14:06:44Z</time>
      </trkpt>
      <trkpt lat="44.03835" lon="2.30517">
        <ele>333.9</ele>
        <time>2018-04-23T14:06:51Z</time>
      </trkpt>
      <trkpt lat="44.03838" lon="2.3051">
        <ele>333.5</ele>
        <time>2018-04-23T14:06:58Z</time>
      </trkpt>
      <trkpt lat="44.0384" lon="2.30508">
        <ele>332.8</ele>
        <time>2018-04-23T14:07:05Z</time>
      </trkpt>
      <trkpt lat="44.03841" lon="2.30505">
        <ele>332.6</ele>
        <time>2018-04-23T14:07:12Z</time>
      </trkpt>
      <trkpt lat="44.03848" lon="2.30502">
        <ele>332</ele>
        <time>2018-04-23T14:07:21Z</time>
      </trkpt>
      <trkpt lat="44.0385" lon="2.30503">
        <ele>331.9</ele>
        <time>2018-04-23T14:07:28Z</time>
      </trkpt>
      <trkpt lat="44.03851" lon="2.30501">
        <ele>331.7</ele>
        <time>2018-04-23T14:07:35Z</time>
      </trkpt>
      <trkpt lat="44.03851" lon="2.30503">
        <ele>331.3</ele>
        <time>2018-04-23T14:07:42Z</time>
      </trkpt>
      <trkpt lat="44.03851" lon="2.30502">
        <ele>329.9</ele>
        <time>2018-04-23T14:08:03Z</time>
      </trkpt>
      <trkpt lat="44.03848" lon="2.30515">
        <ele>329.1</ele>
        <time>2018-04-23T14:08:10Z</time>
      </trkpt>
      <trkpt lat="44.03853" lon="2.30516">
        <ele>328.5</ele>
        <time>2018-04-23T14:08:17Z</time>
      </trkpt>
      <trkpt lat="44.03861" lon="2.30515">
        <ele>328.1</ele>
        <time>2018-04-23T14:08:21Z</time>
      </trkpt>
      <trkpt lat="44.03867" lon="2.30513">
        <ele>327.3</ele>
        <time>2018-04-23T14:08:28Z</time>
      </trkpt>
      <trkpt lat="44.03874" lon="2.30514">
        <ele>327.8</ele>
        <time>2018-04-23T14:08:35Z</time>
      </trkpt>
      <trkpt lat="44.03876" lon="2.30517">
        <ele>328</ele>
        <time>2018-04-23T14:08:42Z</time>
      </trkpt>
      <trkpt lat="44.03879" lon="2.30519">
        <ele>327.8</ele>
        <time>2018-04-23T14:08:49Z</time>
      </trkpt>
      <trkpt lat="44.03882" lon="2.30528">
        <ele>327.3</ele>
        <time>2018-04-23T14:08:58Z</time>
      </trkpt>
      <trkpt lat="44.03882" lon="2.30535">
        <ele>326.9</ele>
        <time>2018-04-23T14:09:05Z</time>
      </trkpt>
      <trkpt lat="44.03881" lon="2.30541">
        <ele>326.8</ele>
        <time>2018-04-23T14:09:12Z</time>
      </trkpt>
      <trkpt lat="44.03881" lon="2.30549">
        <ele>325.7</ele>
        <time>2018-04-23T14:09:19Z</time>
      </trkpt>
      <trkpt lat="44.03884" lon="2.30559">
        <ele>326.6</ele>
        <time>2018-04-23T14:09:26Z</time>
      </trkpt>
      <trkpt lat="44.03885" lon="2.30565">
        <ele>327.4</ele>
        <time>2018-04-23T14:09:33Z</time>
      </trkpt>
      <trkpt lat="44.03886" lon="2.30566">
        <ele>327.6</ele>
        <time>2018-04-23T14:09:40Z</time>
      </trkpt>
      <trkpt lat="44.0389" lon="2.30577">
        <ele>328.2</ele>
        <time>2018-04-23T14:09:49Z</time>
      </trkpt>
      <trkpt lat="44.03887" lon="2.30587">
        <ele>327.8</ele>
        <time>2018-04-23T14:09:55Z</time>
      </trkpt>
      <trkpt lat="44.03888" lon="2.30591">
        <ele>327.1</ele>
        <time>2018-04-23T14:10:02Z</time>
      </trkpt>
      <trkpt lat="44.03882" lon="2.30597">
        <ele>326.1</ele>
        <time>2018-04-23T14:10:15Z</time>
      </trkpt>
      <trkpt lat="44.03879" lon="2.30597">
        <ele>326</ele>
        <time>2018-04-23T14:10:22Z</time>
      </trkpt>
      <trkpt lat="44.03877" lon="2.30604">
        <ele>325.7</ele>
        <time>2018-04-23T14:10:29Z</time>
      </trkpt>
      <trkpt lat="44.03865" lon="2.30606">
        <ele>325</ele>
        <time>2018-04-23T14:11:08Z</time>
      </trkpt>
      <trkpt lat="44.03859" lon="2.30611">
        <ele>324.6</ele>
        <time>2018-04-23T14:11:14Z</time>
      </trkpt>
      <trkpt lat="44.03862" lon="2.30609">
        <ele>323.6</ele>
        <time>2018-04-23T14:11:21Z</time>
      </trkpt>
      <trkpt lat="44.03871" lon="2.30611">
        <ele>322.9</ele>
        <time>2018-04-23T14:11:28Z</time>
      </trkpt>
      <trkpt lat="44.03872" lon="2.30611">
        <ele>322.6</ele>
        <time>2018-04-23T14:11:35Z</time>
      </trkpt>
      <trkpt lat="44.03876" lon="2.30618">
        <ele>322.6</ele>
        <time>2018-04-23T14:11:44Z</time>
      </trkpt>
      <trkpt lat="44.03876" lon="2.30621">
        <ele>322.8</ele>
        <time>2018-04-23T14:11:51Z</time>
      </trkpt>
      <trkpt lat="44.03878" lon="2.3063">
        <ele>324.9</ele>
        <time>2018-04-23T14:12:07Z</time>
      </trkpt>
      <trkpt lat="44.03876" lon="2.30636">
        <ele>325.6</ele>
        <time>2018-04-23T14:12:14Z</time>
      </trkpt>
      <trkpt lat="44.03872" lon="2.30642">
        <ele>326.2</ele>
        <time>2018-04-23T14:12:21Z</time>
      </trkpt>
      <trkpt lat="44.0387" lon="2.30649">
        <ele>326.1</ele>
        <time>2018-04-23T14:12:28Z</time>
      </trkpt>
      <trkpt lat="44.03867" lon="2.30653">
        <ele>325.9</ele>
        <time>2018-04-23T14:12:35Z</time>
      </trkpt>
      <trkpt lat="44.03867" lon="2.30657">
        <ele>326</ele>
        <time>2018-04-23T14:12:42Z</time>
      </trkpt>
      <trkpt lat="44.03866" lon="2.30658">
        <ele>326.1</ele>
        <time>2018-04-23T14:12:49Z</time>
      </trkpt>
      <trkpt lat="44.0387" lon="2.30671">
        <ele>328.7</ele>
        <time>2018-04-23T14:12:22Z</time>
      </trkpt>
      <trkpt lat="44.0387" lon="2.30681">
        <ele>327.9</ele>
        <time>2018-04-23T14:13:41Z</time>
      </trkpt>
      <trkpt lat="44.0387" lon="2.30689">
        <ele>328</ele>
        <time>2018-04-23T14:13:48Z</time>
      </trkpt>
      <trkpt lat="44.03866" lon="2.30695">
        <ele>328.1</ele>
        <time>2018-04-23T14:13:55Z</time>
      </trkpt>
      <trkpt lat="44.03861" lon="2.30698">
        <ele>327.2</ele>
        <time>2018-04-23T14:14:02Z</time>
      </trkpt>
      <trkpt lat="44.03858" lon="2.30707">
        <ele>325.6</ele>
        <time>2018-04-23T14:14:09Z</time>
      </trkpt>
      <trkpt lat="44.03866" lon="2.30714">
        <ele>326</ele>
        <time>2018-04-23T14:14:11Z</time>
      </trkpt>
      <trkpt lat="44.03871" lon="2.30721">
        <ele>326</ele>
        <time>2018-04-23T14:14:18Z</time>
      </trkpt>
      <trkpt lat="44.03875" lon="2.30724">
        <ele>325.6</ele>
        <time>2018-04-23T14:14:25Z</time>
      </trkpt>
      <trkpt lat="44.03872" lon="2.30731">
        <ele>325.9</ele>
        <time>2018-04-23T14:14:32Z</time>
      </trkpt>
      <trkpt lat="44.03869" lon="2.30741">
        <ele>326.2</ele>
        <time>2018-04-23T14:14:38Z</time>
      </trkpt>
      <trkpt lat="44.03872" lon="2.30743">
        <ele>326.9</ele>
        <time>2018-04-23T14:14:45Z</time>
      </trkpt>
      <trkpt lat="44.03876" lon="2.30746">
        <ele>327.9</ele>
        <time>2018-04-23T14:14:52Z</time>
      </trkpt>
      <trkpt lat="44.03878" lon="2.3075">
        <ele>328.9</ele>
        <time>2018-04-23T14:14:59Z</time>
      </trkpt>
      <trkpt lat="44.03885" lon="2.30756">
        <ele>330</ele>
        <time>2018-04-23T14:15:06Z</time>
      </trkpt>
      <trkpt lat="44.03893" lon="2.30759">
        <ele>330.4</ele>
        <time>2018-04-23T14:15:11Z</time>
      </trkpt>
      <trkpt lat="44.03897" lon="2.30764">
        <ele>330.4</ele>
        <time>2018-04-23T14:15:18Z</time>
      </trkpt>
      <trkpt lat="44.03903" lon="2.30767">
        <ele>330.1</ele>
        <time>2018-04-23T14:15:25Z</time>
      </trkpt>
      <trkpt lat="44.03904" lon="2.30767">
        <ele>330.1</ele>
        <time>2018-04-23T14:15:32Z</time>
      </trkpt>
      <trkpt lat="44.03911" lon="2.30769">
        <ele>330.7</ele>
        <time>2018-04-23T14:15:39Z</time>
      </trkpt>
      <trkpt lat="44.03913" lon="2.30767">
        <ele>331.2</ele>
        <time>2018-04-23T14:15:46Z</time>
      </trkpt>
      <trkpt lat="44.03911" lon="2.30775">
        <ele>333.6</ele>
        <time>2018-04-23T14:16:07Z</time>
      </trkpt>
      <trkpt lat="44.03916" lon="2.30784">
        <ele>335.2</ele>
        <time>2018-04-23T14:16:15Z</time>
      </trkpt>
      <trkpt lat="44.03923" lon="2.30781">
        <ele>337.4</ele>
        <time>2018-04-23T14:16:30Z</time>
      </trkpt>
      <trkpt lat="44.03924" lon="2.30781">
        <ele>337.7</ele>
        <time>2018-04-23T14:16:36Z</time>
      </trkpt>
      <trkpt lat="44.03926" lon="2.30777">
        <ele>336.7</ele>
        <time>2018-04-23T14:16:45Z</time>
      </trkpt>
      <trkpt lat="44.03929" lon="2.30771">
        <ele>337.4</ele>
        <time>2018-04-23T14:16:51Z</time>
      </trkpt>
      <trkpt lat="44.03935" lon="2.30763">
        <ele>339.4</ele>
        <time>2018-04-23T14:16:59Z</time>
      </trkpt>
      <trkpt lat="44.03936" lon="2.30754">
        <ele>342.2</ele>
        <time>2018-04-23T14:17:06Z</time>
      </trkpt>
      <trkpt lat="44.03939" lon="2.30745">
        <ele>343.5</ele>
        <time>2018-04-23T14:17:12Z</time>
      </trkpt>
      <trkpt lat="44.03945" lon="2.30737">
        <ele>342.8</ele>
        <time>2018-04-23T14:17:19Z</time>
      </trkpt>
      <trkpt lat="44.03953" lon="2.30734">
        <ele>343</ele>
        <time>2018-04-23T14:17:25Z</time>
      </trkpt>
      <trkpt lat="44.03954" lon="2.30733">
        <ele>343.7</ele>
        <time>2018-04-23T14:17:32Z</time>
      </trkpt>
      <trkpt lat="44.03963" lon="2.30732">
        <ele>344.4</ele>
        <time>2018-04-23T14:17:43Z</time>
      </trkpt>
      <trkpt lat="44.03962" lon="2.30727">
        <ele>347.4</ele>
        <time>2018-04-23T14:17:50Z</time>
      </trkpt>
      <trkpt lat="44.03955" lon="2.30738">
        <ele>349.6</ele>
        <time>2018-04-23T14:18:04Z</time>
      </trkpt>
      <trkpt lat="44.03945" lon="2.30728">
        <ele>348.1</ele>
        <time>2018-04-23T14:18:06Z</time>
      </trkpt>
      <trkpt lat="44.03944" lon="2.30729">
        <ele>344.3</ele>
        <time>2018-04-23T14:18:13Z</time>
      </trkpt>
      <trkpt lat="44.03945" lon="2.30724">
        <ele>342.3</ele>
        <time>2018-04-23T14:18:20Z</time>
      </trkpt>
      <trkpt lat="44.03948" lon="2.30726">
        <ele>341.6</ele>
        <time>2018-04-23T14:18:27Z</time>
      </trkpt>
      <trkpt lat="44.03959" lon="2.30725">
        <ele>340.4</ele>
        <time>2018-04-23T14:18:37Z</time>
      </trkpt>
      <trkpt lat="44.03956" lon="2.30731">
        <ele>340.6</ele>
        <time>2018-04-23T14:18:44Z</time>
      </trkpt>
      <trkpt lat="44.03956" lon="2.3073">
        <ele>340.9</ele>
        <time>2018-04-23T14:18:52Z</time>
      </trkpt>
      <trkpt lat="44.03957" lon="2.30723">
        <ele>345.6</ele>
        <time>2018-04-23T14:19:08Z</time>
      </trkpt>
      <trkpt lat="44.03959" lon="2.30725">
        <ele>347.7</ele>
        <time>2018-04-23T14:19:14Z</time>
      </trkpt>
      <trkpt lat="44.03952" lon="2.3073">
        <ele>346.1</ele>
        <time>2018-04-23T14:19:22Z</time>
      </trkpt>
      <trkpt lat="44.03951" lon="2.30729">
        <ele>345.5</ele>
        <time>2018-04-23T14:19:28Z</time>
      </trkpt>
      <trkpt lat="44.03943" lon="2.3073">
        <ele>345.2</ele>
        <time>2018-04-23T14:19:34Z</time>
      </trkpt>
      <trkpt lat="44.03946" lon="2.30732">
        <ele>345.6</ele>
        <time>2018-04-23T14:19:41Z</time>
      </trkpt>
      <trkpt lat="44.03953" lon="2.30734">
        <ele>345.8</ele>
        <time>2018-04-23T14:19:46Z</time>
      </trkpt>
      <trkpt lat="44.03957" lon="2.3074">
        <ele>346.3</ele>
        <time>2018-04-23T14:19:53Z</time>
      </trkpt>
      <trkpt lat="44.03957" lon="2.30739">
        <ele>346.3</ele>
        <time>2018-04-23T14:20:00Z</time>
      </trkpt>
      <trkpt lat="44.03956" lon="2.30732">
        <ele>347.6</ele>
        <time>2018-04-23T14:20:08Z</time>
      </trkpt>
      <trkpt lat="44.03958" lon="2.30732">
        <ele>349.2</ele>
        <time>2018-04-23T14:20:14Z</time>
      </trkpt>
      <trkpt lat="44.03959" lon="2.3073">
        <ele>351.6</ele>
        <time>2018-04-23T14:20:27Z</time>
      </trkpt>
      <trkpt lat="44.0396" lon="2.30729">
        <ele>353.2</ele>
        <time>2018-04-23T14:20:39Z</time>
      </trkpt>
      <trkpt lat="44.03963" lon="2.30724">
        <ele>353.4</ele>
        <time>2018-04-23T14:20:46Z</time>
      </trkpt>
      <trkpt lat="44.03971" lon="2.30723">
        <ele>353</ele>
        <time>2018-04-23T14:20:52Z</time>
      </trkpt>
      <trkpt lat="44.03963" lon="2.30712">
        <ele>352.6</ele>
        <time>2018-04-23T14:20:54Z</time>
      </trkpt>
      <trkpt lat="44.03955" lon="2.30712">
        <ele>351.2</ele>
        <time>2018-04-23T14:20:59Z</time>
      </trkpt>
      <trkpt lat="44.03958" lon="2.30718">
        <ele>348.8</ele>
        <time>2018-04-23T14:21:06Z</time>
      </trkpt>
      <trkpt lat="44.03958" lon="2.30723">
        <ele>347.7</ele>
        <time>2018-04-23T14:21:13Z</time>
      </trkpt>
      <trkpt lat="44.0395" lon="2.30731">
        <ele>347.5</ele>
        <time>2018-04-23T14:21:16Z</time>
      </trkpt>
      <trkpt lat="44.03941" lon="2.30733">
        <ele>346.7</ele>
        <time>2018-04-23T14:21:21Z</time>
      </trkpt>
      <trkpt lat="44.03932" lon="2.30733">
        <ele>345.6</ele>
        <time>2018-04-23T14:21:27Z</time>
      </trkpt>
      <trkpt lat="44.03941" lon="2.30736">
        <ele>345</ele>
        <time>2018-04-23T14:21:30Z</time>
      </trkpt>
      <trkpt lat="44.03945" lon="2.30739">
        <ele>344.7</ele>
        <time>2018-04-23T14:21:37Z</time>
      </trkpt>
      <trkpt lat="44.0395" lon="2.30738">
        <ele>345.6</ele>
        <time>2018-04-23T14:21:48Z</time>
      </trkpt>
      <trkpt lat="44.03948" lon="2.30741">
        <ele>345.8</ele>
        <time>2018-04-23T14:21:55Z</time>
      </trkpt>
      <trkpt lat="44.03954" lon="2.30737">
        <ele>346.4</ele>
        <time>2018-04-23T14:22:02Z</time>
      </trkpt>
      <trkpt lat="44.03959" lon="2.30733">
        <ele>349.5</ele>
        <time>2018-04-23T14:22:19Z</time>
      </trkpt>
      <trkpt lat="44.03963" lon="2.30736">
        <ele>350.5</ele>
        <time>2018-04-23T14:22:29Z</time>
      </trkpt>
      <trkpt lat="44.03964" lon="2.30738">
        <ele>353.5</ele>
        <time>2018-04-23T14:22:36Z</time>
      </trkpt>
      <trkpt lat="44.03962" lon="2.30735">
        <ele>356.9</ele>
        <time>2018-04-23T14:22:43Z</time>
      </trkpt>
      <trkpt lat="44.03965" lon="2.30735">
        <ele>360</ele>
        <time>2018-04-23T14:22:50Z</time>
      </trkpt>
      <trkpt lat="44.03969" lon="2.30735">
        <ele>364.4</ele>
        <time>2018-04-23T14:22:57Z</time>
      </trkpt>
      <trkpt lat="44.03971" lon="2.30735">
        <ele>368.8</ele>
        <time>2018-04-23T14:23:04Z</time>
      </trkpt>
      <trkpt lat="44.03977" lon="2.3072">
        <ele>374.9</ele>
        <time>2018-04-23T14:23:50Z</time>
      </trkpt>
      <trkpt lat="44.03979" lon="2.30717">
        <ele>374.8</ele>
        <time>2018-04-23T14:23:57Z</time>
      </trkpt>
      <trkpt lat="44.03983" lon="2.30719">
        <ele>374.5</ele>
        <time>2018-04-23T14:24:04Z</time>
      </trkpt>
      <trkpt lat="44.03983" lon="2.3072">
        <ele>374.1</ele>
        <time>2018-04-23T14:24:11Z</time>
      </trkpt>
      <trkpt lat="44.03973" lon="2.30715">
        <ele>373.7</ele>
        <time>2018-04-23T14:24:13Z</time>
      </trkpt>
      <trkpt lat="44.03974" lon="2.30714">
        <ele>372.9</ele>
        <time>2018-04-23T14:24:24Z</time>
      </trkpt>
      <trkpt lat="44.03967" lon="2.30714">
        <ele>372.6</ele>
        <time>2018-04-23T14:24:28Z</time>
      </trkpt>
      <trkpt lat="44.03965" lon="2.30715">
        <ele>372.1</ele>
        <time>2018-04-23T14:24:35Z</time>
      </trkpt>
      <trkpt lat="44.03962" lon="2.30719">
        <ele>372.5</ele>
        <time>2018-04-23T14:24:42Z</time>
      </trkpt>
      <trkpt lat="44.03957" lon="2.30727">
        <ele>373.3</ele>
        <time>2018-04-23T14:24:48Z</time>
      </trkpt>
      <trkpt lat="44.03958" lon="2.3073">
        <ele>373.7</ele>
        <time>2018-04-23T14:24:55Z</time>
      </trkpt>
      <trkpt lat="44.03952" lon="2.30738">
        <ele>374</ele>
        <time>2018-04-23T14:24:59Z</time>
      </trkpt>
      <trkpt lat="44.03955" lon="2.30747">
        <ele>374.8</ele>
        <time>2018-04-23T14:25:06Z</time>
      </trkpt>
      <trkpt lat="44.03952" lon="2.30755">
        <ele>375.2</ele>
        <time>2018-04-23T14:25:13Z</time>
      </trkpt>
      <trkpt lat="44.03956" lon="2.30761">
        <ele>375.4</ele>
        <time>2018-04-23T14:25:20Z</time>
      </trkpt>
      <trkpt lat="44.03956" lon="2.30764">
        <ele>374.9</ele>
        <time>2018-04-23T14:25:27Z</time>
      </trkpt>
      <trkpt lat="44.03959" lon="2.30761">
        <ele>374.5</ele>
        <time>2018-04-23T14:25:34Z</time>
      </trkpt>
      <trkpt lat="44.03959" lon="2.30764">
        <ele>371.6</ele>
        <time>2018-04-23T14:25:41Z</time>
      </trkpt>
      <trkpt lat="44.03964" lon="2.30761">
        <ele>371.3</ele>
        <time>2018-04-23T14:25:48Z</time>
      </trkpt>
      <trkpt lat="44.03969" lon="2.3076">
        <ele>374</ele>
        <time>2018-04-23T14:25:55Z</time>
      </trkpt>
      <trkpt lat="44.03973" lon="2.30761">
        <ele>377.3</ele>
        <time>2018-04-23T14:26:02Z</time>
      </trkpt>
      <trkpt lat="44.03978" lon="2.30767">
        <ele>376.7</ele>
        <time>2018-04-23T14:26:09Z</time>
      </trkpt>
      <trkpt lat="44.03983" lon="2.30773">
        <ele>376</ele>
        <time>2018-04-23T14:26:16Z</time>
      </trkpt>
      <trkpt lat="44.03989" lon="2.30778">
        <ele>376.4</ele>
        <time>2018-04-23T14:26:23Z</time>
      </trkpt>
      <trkpt lat="44.03994" lon="2.30782">
        <ele>377.2</ele>
        <time>2018-04-23T14:26:30Z</time>
      </trkpt>
      <trkpt lat="44.03999" lon="2.30783">
        <ele>378.5</ele>
        <time>2018-04-23T14:26:37Z</time>
      </trkpt>
      <trkpt lat="44.04003" lon="2.30784">
        <ele>378</ele>
        <time>2018-04-23T14:26:44Z</time>
      </trkpt>
      <trkpt lat="44.04009" lon="2.30784">
        <ele>378.2</ele>
        <time>2018-04-23T14:26:51Z</time>
      </trkpt>
      <trkpt lat="44.04015" lon="2.30783">
        <ele>378</ele>
        <time>2018-04-23T14:26:58Z</time>
      </trkpt>
      <trkpt lat="44.04022" lon="2.30778">
        <ele>377.3</ele>
        <time>2018-04-23T14:27:04Z</time>
      </trkpt>
      <trkpt lat="44.04028" lon="2.30773">
        <ele>375.9</ele>
        <time>2018-04-23T14:27:10Z</time>
      </trkpt>
      <trkpt lat="44.04031" lon="2.30764">
        <ele>375.2</ele>
        <time>2018-04-23T14:27:17Z</time>
      </trkpt>
      <trkpt lat="44.04034" lon="2.30761">
        <ele>374.2</ele>
        <time>2018-04-23T14:27:24Z</time>
      </trkpt>
      <trkpt lat="44.04037" lon="2.30756">
        <ele>373.6</ele>
        <time>2018-04-23T14:27:31Z</time>
      </trkpt>
      <trkpt lat="44.04043" lon="2.30757">
        <ele>373.5</ele>
        <time>2018-04-23T14:27:38Z</time>
      </trkpt>
      <trkpt lat="44.0405" lon="2.30764">
        <ele>373.1</ele>
        <time>2018-04-23T14:27:45Z</time>
      </trkpt>
      <trkpt lat="44.04058" lon="2.30761">
        <ele>374.5</ele>
        <time>2018-04-23T14:27:50Z</time>
      </trkpt>
      <trkpt lat="44.04062" lon="2.30761">
        <ele>376.9</ele>
        <time>2018-04-23T14:27:57Z</time>
      </trkpt>
      <trkpt lat="44.04063" lon="2.30764">
        <ele>378.1</ele>
        <time>2018-04-23T14:28:04Z</time>
      </trkpt>
      <trkpt lat="44.04063" lon="2.3077">
        <ele>378.8</ele>
        <time>2018-04-23T14:28:11Z</time>
      </trkpt>
      <trkpt lat="44.04065" lon="2.30775">
        <ele>378.8</ele>
        <time>2018-04-23T14:28:18Z</time>
      </trkpt>
      <trkpt lat="44.04066" lon="2.30776">
        <ele>378.5</ele>
        <time>2018-04-23T14:28:25Z</time>
      </trkpt>
      <trkpt lat="44.0407" lon="2.30776">
        <ele>378</ele>
        <time>2018-04-23T14:28:32Z</time>
      </trkpt>
      <trkpt lat="44.04076" lon="2.30772">
        <ele>378.8</ele>
        <time>2018-04-23T14:28:39Z</time>
      </trkpt>
      <trkpt lat="44.04081" lon="2.30768">
        <ele>378.9</ele>
        <time>2018-04-23T14:28:46Z</time>
      </trkpt>
      <trkpt lat="44.04085" lon="2.3077">
        <ele>378.6</ele>
        <time>2018-04-23T14:28:53Z</time>
      </trkpt>
      <trkpt lat="44.04092" lon="2.30772">
        <ele>378.4</ele>
        <time>2018-04-23T14:29:00Z</time>
      </trkpt>
      <trkpt lat="44.04099" lon="2.30774">
        <ele>378</ele>
        <time>2018-04-23T14:29:07Z</time>
      </trkpt>
      <trkpt lat="44.04104" lon="2.30775">
        <ele>376.5</ele>
        <time>2018-04-23T14:29:14Z</time>
      </trkpt>
      <trkpt lat="44.04107" lon="2.30778">
        <ele>378.4</ele>
        <time>2018-04-23T14:29:21Z</time>
      </trkpt>
      <trkpt lat="44.04108" lon="2.30781">
        <ele>378.7</ele>
        <time>2018-04-23T14:29:28Z</time>
      </trkpt>
      <trkpt lat="44.04106" lon="2.30788">
        <ele>378.1</ele>
        <time>2018-04-23T14:29:35Z</time>
      </trkpt>
      <trkpt lat="44.04109" lon="2.30793">
        <ele>377.1</ele>
        <time>2018-04-23T14:29:42Z</time>
      </trkpt>
      <trkpt lat="44.04112" lon="2.30799">
        <ele>376.8</ele>
        <time>2018-04-23T14:29:49Z</time>
      </trkpt>
      <trkpt lat="44.0412" lon="2.308">
        <ele>376.4</ele>
        <time>2018-04-23T14:29:54Z</time>
      </trkpt>
      <trkpt lat="44.04125" lon="2.30807">
        <ele>376</ele>
        <time>2018-04-23T14:30:01Z</time>
      </trkpt>
      <trkpt lat="44.04126" lon="2.30808">
        <ele>375.8</ele>
        <time>2018-04-23T14:30:08Z</time>
      </trkpt>
      <trkpt lat="44.04132" lon="2.30815">
        <ele>376.4</ele>
        <time>2018-04-23T14:30:21Z</time>
      </trkpt>
      <trkpt lat="44.04138" lon="2.30817">
        <ele>376.1</ele>
        <time>2018-04-23T14:30:28Z</time>
      </trkpt>
      <trkpt lat="44.04143" lon="2.30818">
        <ele>376.3</ele>
        <time>2018-04-23T14:30:35Z</time>
      </trkpt>
      <trkpt lat="44.04147" lon="2.30823">
        <ele>377.9</ele>
        <time>2018-04-23T14:30:42Z</time>
      </trkpt>
      <trkpt lat="44.04153" lon="2.30828">
        <ele>379.4</ele>
        <time>2018-04-23T14:30:49Z</time>
      </trkpt>
      <trkpt lat="44.04159" lon="2.30834">
        <ele>381.1</ele>
        <time>2018-04-23T14:30:55Z</time>
      </trkpt>
      <trkpt lat="44.04164" lon="2.30829">
        <ele>383.6</ele>
        <time>2018-04-23T14:31:02Z</time>
      </trkpt>
      <trkpt lat="44.04167" lon="2.30824">
        <ele>386</ele>
        <time>2018-04-23T14:31:09Z</time>
      </trkpt>
      <trkpt lat="44.04168" lon="2.30819">
        <ele>387.3</ele>
        <time>2018-04-23T14:31:23Z</time>
      </trkpt>
      <trkpt lat="44.04174" lon="2.30819">
        <ele>387.2</ele>
        <time>2018-04-23T14:31:30Z</time>
      </trkpt>
      <trkpt lat="44.04173" lon="2.30819">
        <ele>387.1</ele>
        <time>2018-04-23T14:31:37Z</time>
      </trkpt>
      <trkpt lat="44.04176" lon="2.30813">
        <ele>388</ele>
        <time>2018-04-23T14:31:51Z</time>
      </trkpt>
      <trkpt lat="44.04172" lon="2.30806">
        <ele>388.9</ele>
        <time>2018-04-23T14:31:58Z</time>
      </trkpt>
      <trkpt lat="44.04179" lon="2.30799">
        <ele>389.6</ele>
        <time>2018-04-23T14:32:04Z</time>
      </trkpt>
      <trkpt lat="44.04183" lon="2.30793">
        <ele>390.9</ele>
        <time>2018-04-23T14:32:11Z</time>
      </trkpt>
      <trkpt lat="44.04192" lon="2.30788">
        <ele>391.6</ele>
        <time>2018-04-23T14:32:17Z</time>
      </trkpt>
      <trkpt lat="44.04199" lon="2.30786">
        <ele>392.6</ele>
        <time>2018-04-23T14:32:23Z</time>
      </trkpt>
      <trkpt lat="44.04202" lon="2.30783">
        <ele>394.5</ele>
        <time>2018-04-23T14:32:30Z</time>
      </trkpt>
      <trkpt lat="44.04204" lon="2.30781">
        <ele>396.2</ele>
        <time>2018-04-23T14:32:37Z</time>
      </trkpt>
      <trkpt lat="44.0421" lon="2.30781">
        <ele>397.5</ele>
        <time>2018-04-23T14:32:44Z</time>
      </trkpt>
      <trkpt lat="44.04212" lon="2.30782">
        <ele>399.2</ele>
        <time>2018-04-23T14:32:51Z</time>
      </trkpt>
      <trkpt lat="44.04213" lon="2.30783">
        <ele>398.7</ele>
        <time>2018-04-23T14:32:58Z</time>
      </trkpt>
      <trkpt lat="44.0422" lon="2.30781">
        <ele>400.9</ele>
        <time>2018-04-23T14:33:10Z</time>
      </trkpt>
      <trkpt lat="44.04213" lon="2.30776">
        <ele>399.9</ele>
        <time>2018-04-23T14:33:17Z</time>
      </trkpt>
      <trkpt lat="44.04212" lon="2.30765">
        <ele>398.8</ele>
        <time>2018-04-23T14:33:20Z</time>
      </trkpt>
      <trkpt lat="44.04221" lon="2.30768">
        <ele>396.1</ele>
        <time>2018-04-23T14:33:26Z</time>
      </trkpt>
      <trkpt lat="44.04219" lon="2.3078">
        <ele>392.8</ele>
        <time>2018-04-23T14:33:33Z</time>
      </trkpt>
      <trkpt lat="44.04214" lon="2.30788">
        <ele>392</ele>
        <time>2018-04-23T14:33:35Z</time>
      </trkpt>
      <trkpt lat="44.04221" lon="2.30792">
        <ele>388.4</ele>
        <time>2018-04-23T14:33:42Z</time>
      </trkpt>
      <trkpt lat="44.04224" lon="2.30795">
        <ele>387.4</ele>
        <time>2018-04-23T14:33:49Z</time>
      </trkpt>
      <trkpt lat="44.0423" lon="2.308">
        <ele>386.5</ele>
        <time>2018-04-23T14:33:56Z</time>
      </trkpt>
      <trkpt lat="44.04233" lon="2.30811">
        <ele>386.5</ele>
        <time>2018-04-23T14:34:03Z</time>
      </trkpt>
      <trkpt lat="44.0424" lon="2.30818">
        <ele>390.1</ele>
        <time>2018-04-23T14:34:06Z</time>
      </trkpt>
      <trkpt lat="44.04246" lon="2.30826">
        <ele>393.9</ele>
        <time>2018-04-23T14:34:10Z</time>
      </trkpt>
      <trkpt lat="44.04252" lon="2.30832">
        <ele>396</ele>
        <time>2018-04-23T14:34:17Z</time>
      </trkpt>
      <trkpt lat="44.04253" lon="2.30839">
        <ele>396.4</ele>
        <time>2018-04-23T14:34:24Z</time>
      </trkpt>
      <trkpt lat="44.04249" lon="2.30848">
        <ele>395.5</ele>
        <time>2018-04-23T14:34:30Z</time>
      </trkpt>
      <trkpt lat="44.04249" lon="2.30852">
        <ele>395.5</ele>
        <time>2018-04-23T14:34:37Z</time>
      </trkpt>
      <trkpt lat="44.04258" lon="2.30851">
        <ele>395</ele>
        <time>2018-04-23T14:34:50Z</time>
      </trkpt>
      <trkpt lat="44.04261" lon="2.30854">
        <ele>394.5</ele>
        <time>2018-04-23T14:34:57Z</time>
      </trkpt>
      <trkpt lat="44.04267" lon="2.30855">
        <ele>394.6</ele>
        <time>2018-04-23T14:35:04Z</time>
      </trkpt>
      <trkpt lat="44.04268" lon="2.30858">
        <ele>394.4</ele>
        <time>2018-04-23T14:35:11Z</time>
      </trkpt>
      <trkpt lat="44.0427" lon="2.30859">
        <ele>395.3</ele>
        <time>2018-04-23T14:35:18Z</time>
      </trkpt>
      <trkpt lat="44.0427" lon="2.30861">
        <ele>395.8</ele>
        <time>2018-04-23T14:35:25Z</time>
      </trkpt>
      <trkpt lat="44.04275" lon="2.30862">
        <ele>395.8</ele>
        <time>2018-04-23T14:35:32Z</time>
      </trkpt>
      <trkpt lat="44.04274" lon="2.30861">
        <ele>399</ele>
        <time>2018-04-23T14:35:39Z</time>
      </trkpt>
      <trkpt lat="44.04276" lon="2.30855">
        <ele>401.6</ele>
        <time>2018-04-23T14:35:46Z</time>
      </trkpt>
      <trkpt lat="44.04282" lon="2.30849">
        <ele>405.2</ele>
        <time>2018-04-23T14:35:53Z</time>
      </trkpt>
      <trkpt lat="44.04289" lon="2.30843">
        <ele>408.7</ele>
        <time>2018-04-23T14:35:58Z</time>
      </trkpt>
      <trkpt lat="44.04296" lon="2.30839">
        <ele>411.8</ele>
        <time>2018-04-23T14:36:03Z</time>
      </trkpt>
      <trkpt lat="44.04302" lon="2.30833">
        <ele>415.6</ele>
        <time>2018-04-23T14:36:09Z</time>
      </trkpt>
      <trkpt lat="44.04308" lon="2.30824">
        <ele>418.8</ele>
        <time>2018-04-23T14:36:16Z</time>
      </trkpt>
      <trkpt lat="44.04315" lon="2.3082">
        <ele>421.3</ele>
        <time>2018-04-23T14:36:22Z</time>
      </trkpt>
      <trkpt lat="44.04322" lon="2.30816">
        <ele>421.3</ele>
        <time>2018-04-23T14:36:28Z</time>
      </trkpt>
      <trkpt lat="44.04328" lon="2.30813">
        <ele>420.6</ele>
        <time>2018-04-23T14:36:35Z</time>
      </trkpt>
      <trkpt lat="44.04332" lon="2.30812">
        <ele>419.5</ele>
        <time>2018-04-23T14:36:42Z</time>
      </trkpt>
      <trkpt lat="44.04335" lon="2.30811">
        <ele>418.9</ele>
        <time>2018-04-23T14:36:49Z</time>
      </trkpt>
      <trkpt lat="44.04342" lon="2.30816">
        <ele>417.2</ele>
        <time>2018-04-23T14:36:55Z</time>
      </trkpt>
      <trkpt lat="44.04352" lon="2.30818">
        <ele>415.6</ele>
        <time>2018-04-23T14:36:57Z</time>
      </trkpt>
      <trkpt lat="44.0436" lon="2.30815">
        <ele>412.3</ele>
        <time>2018-04-23T14:37:01Z</time>
      </trkpt>
      <trkpt lat="44.04362" lon="2.30806">
        <ele>409</ele>
        <time>2018-04-23T14:37:08Z</time>
      </trkpt>
      <trkpt lat="44.04366" lon="2.30803">
        <ele>409.6</ele>
        <time>2018-04-23T14:37:15Z</time>
      </trkpt>
      <trkpt lat="44.04369" lon="2.308">
        <ele>407.9</ele>
        <time>2018-04-23T14:37:22Z</time>
      </trkpt>
      <trkpt lat="44.0437" lon="2.30795">
        <ele>406</ele>
        <time>2018-04-23T14:37:29Z</time>
      </trkpt>
      <trkpt lat="44.04369" lon="2.30795">
        <ele>405.1</ele>
        <time>2018-04-23T14:37:36Z</time>
      </trkpt>
      <trkpt lat="44.04377" lon="2.3079">
        <ele>405.3</ele>
        <time>2018-04-23T14:37:44Z</time>
      </trkpt>
      <trkpt lat="44.04382" lon="2.30783">
        <ele>405.5</ele>
        <time>2018-04-23T14:37:51Z</time>
      </trkpt>
      <trkpt lat="44.04386" lon="2.30775">
        <ele>406</ele>
        <time>2018-04-23T14:37:58Z</time>
      </trkpt>
      <trkpt lat="44.04388" lon="2.3077">
        <ele>405.9</ele>
        <time>2018-04-23T14:38:05Z</time>
      </trkpt>
      <trkpt lat="44.04389" lon="2.30762">
        <ele>405.3</ele>
        <time>2018-04-23T14:38:12Z</time>
      </trkpt>
      <trkpt lat="44.04392" lon="2.30754">
        <ele>404.2</ele>
        <time>2018-04-23T14:38:19Z</time>
      </trkpt>
      <trkpt lat="44.04392" lon="2.30745">
        <ele>402.4</ele>
        <time>2018-04-23T14:38:26Z</time>
      </trkpt>
      <trkpt lat="44.04394" lon="2.30738">
        <ele>400.2</ele>
        <time>2018-04-23T14:38:33Z</time>
      </trkpt>
      <trkpt lat="44.04395" lon="2.30739">
        <ele>400.2</ele>
        <time>2018-04-23T14:38:40Z</time>
      </trkpt>
      <trkpt lat="44.04397" lon="2.30744">
        <ele>400</ele>
        <time>2018-04-23T14:38:47Z</time>
      </trkpt>
      <trkpt lat="44.04399" lon="2.30753">
        <ele>398.7</ele>
        <time>2018-04-23T14:38:54Z</time>
      </trkpt>
      <trkpt lat="44.04401" lon="2.30758">
        <ele>398.7</ele>
        <time>2018-04-23T14:39:01Z</time>
      </trkpt>
      <trkpt lat="44.04403" lon="2.30769">
        <ele>398.8</ele>
        <time>2018-04-23T14:39:08Z</time>
      </trkpt>
      <trkpt lat="44.0441" lon="2.30776">
        <ele>398.3</ele>
        <time>2018-04-23T14:39:14Z</time>
      </trkpt>
      <trkpt lat="44.04416" lon="2.30783">
        <ele>397.7</ele>
        <time>2018-04-23T14:39:20Z</time>
      </trkpt>
      <trkpt lat="44.04422" lon="2.30788">
        <ele>397</ele>
        <time>2018-04-23T14:39:27Z</time>
      </trkpt>
      <trkpt lat="44.04426" lon="2.30795">
        <ele>397.2</ele>
        <time>2018-04-23T14:39:34Z</time>
      </trkpt>
      <trkpt lat="44.04429" lon="2.30797">
        <ele>398</ele>
        <time>2018-04-23T14:39:41Z</time>
      </trkpt>
      <trkpt lat="44.04435" lon="2.30793">
        <ele>399.7</ele>
        <time>2018-04-23T14:39:55Z</time>
      </trkpt>
      <trkpt lat="44.04437" lon="2.30785">
        <ele>400.9</ele>
        <time>2018-04-23T14:40:02Z</time>
      </trkpt>
      <trkpt lat="44.0444" lon="2.30779">
        <ele>400.2</ele>
        <time>2018-04-23T14:40:09Z</time>
      </trkpt>
      <trkpt lat="44.04445" lon="2.30774">
        <ele>399.7</ele>
        <time>2018-04-23T14:40:16Z</time>
      </trkpt>
      <trkpt lat="44.04449" lon="2.30766">
        <ele>399.5</ele>
        <time>2018-04-23T14:40:23Z</time>
      </trkpt>
      <trkpt lat="44.04452" lon="2.30764">
        <ele>398.8</ele>
        <time>2018-04-23T14:40:30Z</time>
      </trkpt>
      <trkpt lat="44.04455" lon="2.30767">
        <ele>399.9</ele>
        <time>2018-04-23T14:40:37Z</time>
      </trkpt>
      <trkpt lat="44.04462" lon="2.30771">
        <ele>402.6</ele>
        <time>2018-04-23T14:40:44Z</time>
      </trkpt>
      <trkpt lat="44.04467" lon="2.30775">
        <ele>405.2</ele>
        <time>2018-04-23T14:40:51Z</time>
      </trkpt>
      <trkpt lat="44.04475" lon="2.30776">
        <ele>408.5</ele>
        <time>2018-04-23T14:40:58Z</time>
      </trkpt>
      <trkpt lat="44.0448" lon="2.30777">
        <ele>410.7</ele>
        <time>2018-04-23T14:41:05Z</time>
      </trkpt>
      <trkpt lat="44.04484" lon="2.30778">
        <ele>412.3</ele>
        <time>2018-04-23T14:41:12Z</time>
      </trkpt>
      <trkpt lat="44.04491" lon="2.30779">
        <ele>416.2</ele>
        <time>2018-04-23T14:41:19Z</time>
      </trkpt>
      <trkpt lat="44.04499" lon="2.30779">
        <ele>419.3</ele>
        <time>2018-04-23T14:41:23Z</time>
      </trkpt>
      <trkpt lat="44.04508" lon="2.3078">
        <ele>422.6</ele>
        <time>2018-04-23T14:41:26Z</time>
      </trkpt>
      <trkpt lat="44.04516" lon="2.30778">
        <ele>424.9</ele>
        <time>2018-04-23T14:41:30Z</time>
      </trkpt>
      <trkpt lat="44.04523" lon="2.30775">
        <ele>427</ele>
        <time>2018-04-23T14:41:35Z</time>
      </trkpt>
      <trkpt lat="44.04529" lon="2.30771">
        <ele>430.3</ele>
        <time>2018-04-23T14:41:42Z</time>
      </trkpt>
      <trkpt lat="44.04536" lon="2.30767">
        <ele>433.9</ele>
        <time>2018-04-23T14:41:49Z</time>
      </trkpt>
      <trkpt lat="44.04543" lon="2.30766">
        <ele>436.6</ele>
        <time>2018-04-23T14:41:56Z</time>
      </trkpt>
      <trkpt lat="44.04548" lon="2.30764">
        <ele>438.8</ele>
        <time>2018-04-23T14:42:04Z</time>
      </trkpt>
      <trkpt lat="44.04551" lon="2.30764">
        <ele>441.4</ele>
        <time>2018-04-23T14:42:11Z</time>
      </trkpt>
      <trkpt lat="44.04555" lon="2.3076">
        <ele>444.3</ele>
        <time>2018-04-23T14:42:18Z</time>
      </trkpt>
      <trkpt lat="44.0456" lon="2.30756">
        <ele>446.6</ele>
        <time>2018-04-23T14:42:25Z</time>
      </trkpt>
      <trkpt lat="44.04563" lon="2.30751">
        <ele>449.5</ele>
        <time>2018-04-23T14:42:32Z</time>
      </trkpt>
      <trkpt lat="44.04565" lon="2.30746">
        <ele>452.4</ele>
        <time>2018-04-23T14:42:39Z</time>
      </trkpt>
      <trkpt lat="44.04571" lon="2.3074">
        <ele>455</ele>
        <time>2018-04-23T14:42:46Z</time>
      </trkpt>
      <trkpt lat="44.04575" lon="2.30733">
        <ele>457.7</ele>
        <time>2018-04-23T14:42:53Z</time>
      </trkpt>
      <trkpt lat="44.0458" lon="2.30726">
        <ele>460</ele>
        <time>2018-04-23T14:43:00Z</time>
      </trkpt>
      <trkpt lat="44.04586" lon="2.30717">
        <ele>461.8</ele>
        <time>2018-04-23T14:43:07Z</time>
      </trkpt>
      <trkpt lat="44.04591" lon="2.30708">
        <ele>463</ele>
        <time>2018-04-23T14:43:13Z</time>
      </trkpt>
      <trkpt lat="44.04596" lon="2.30699">
        <ele>464.6</ele>
        <time>2018-04-23T14:43:19Z</time>
      </trkpt>
      <trkpt lat="44.04602" lon="2.30691">
        <ele>466.1</ele>
        <time>2018-04-23T14:43:25Z</time>
      </trkpt>
      <trkpt lat="44.04606" lon="2.30681">
        <ele>467.6</ele>
        <time>2018-04-23T14:43:32Z</time>
      </trkpt>
      <trkpt lat="44.04611" lon="2.30672">
        <ele>468.4</ele>
        <time>2018-04-23T14:43:38Z</time>
      </trkpt>
      <trkpt lat="44.04616" lon="2.30664">
        <ele>468.7</ele>
        <time>2018-04-23T14:43:43Z</time>
      </trkpt>
      <trkpt lat="44.04622" lon="2.30656">
        <ele>469</ele>
        <time>2018-04-23T14:43:49Z</time>
      </trkpt>
      <trkpt lat="44.04626" lon="2.30648">
        <ele>469.3</ele>
        <time>2018-04-23T14:43:55Z</time>
      </trkpt>
      <trkpt lat="44.04629" lon="2.30638">
        <ele>469.8</ele>
        <time>2018-04-23T14:44:02Z</time>
      </trkpt>
      <trkpt lat="44.04636" lon="2.30631">
        <ele>469.9</ele>
        <time>2018-04-23T14:44:09Z</time>
      </trkpt>
      <trkpt lat="44.04643" lon="2.30627">
        <ele>470.1</ele>
        <time>2018-04-23T14:44:16Z</time>
      </trkpt>
      <trkpt lat="44.0465" lon="2.30624">
        <ele>470.6</ele>
        <time>2018-04-23T14:44:23Z</time>
      </trkpt>
      <trkpt lat="44.04651" lon="2.30617">
        <ele>475.3</ele>
        <time>2018-04-23T14:44:43Z</time>
      </trkpt>
      <trkpt lat="44.04651" lon="2.30616">
        <ele>474.4</ele>
        <time>2018-04-23T14:44:50Z</time>
      </trkpt>
      <trkpt lat="44.04657" lon="2.3061">
        <ele>473.9</ele>
        <time>2018-04-23T14:45:13Z</time>
      </trkpt>
      <trkpt lat="44.04664" lon="2.30605">
        <ele>473.4</ele>
        <time>2018-04-23T14:45:20Z</time>
      </trkpt>
      <trkpt lat="44.04671" lon="2.306">
        <ele>473.1</ele>
        <time>2018-04-23T14:45:26Z</time>
      </trkpt>
      <trkpt lat="44.04675" lon="2.30597">
        <ele>473.5</ele>
        <time>2018-04-23T14:45:33Z</time>
      </trkpt>
      <trkpt lat="44.04681" lon="2.30589">
        <ele>472</ele>
        <time>2018-04-23T14:45:39Z</time>
      </trkpt>
      <trkpt lat="44.04688" lon="2.30583">
        <ele>470.2</ele>
        <time>2018-04-23T14:45:46Z</time>
      </trkpt>
      <trkpt lat="44.04695" lon="2.30577">
        <ele>470.5</ele>
        <time>2018-04-23T14:45:53Z</time>
      </trkpt>
      <trkpt lat="44.047" lon="2.30568">
        <ele>471.3</ele>
        <time>2018-04-23T14:46:00Z</time>
      </trkpt>
      <trkpt lat="44.04704" lon="2.30559">
        <ele>473.4</ele>
        <time>2018-04-23T14:46:06Z</time>
      </trkpt>
      <trkpt lat="44.04708" lon="2.3055">
        <ele>476.2</ele>
        <time>2018-04-23T14:46:12Z</time>
      </trkpt>
      <trkpt lat="44.04713" lon="2.30542">
        <ele>478.8</ele>
        <time>2018-04-23T14:46:18Z</time>
      </trkpt>
      <trkpt lat="44.04718" lon="2.30534">
        <ele>479.9</ele>
        <time>2018-04-23T14:46:24Z</time>
      </trkpt>
      <trkpt lat="44.04724" lon="2.30526">
        <ele>481.8</ele>
        <time>2018-04-23T14:46:29Z</time>
      </trkpt>
      <trkpt lat="44.04728" lon="2.30517">
        <ele>482</ele>
        <time>2018-04-23T14:46:35Z</time>
      </trkpt>
      <trkpt lat="44.04734" lon="2.3051">
        <ele>480.6</ele>
        <time>2018-04-23T14:46:42Z</time>
      </trkpt>
      <trkpt lat="44.0474" lon="2.30503">
        <ele>479.4</ele>
        <time>2018-04-23T14:46:47Z</time>
      </trkpt>
      <trkpt lat="44.04745" lon="2.30495">
        <ele>478.4</ele>
        <time>2018-04-23T14:46:52Z</time>
      </trkpt>
      <trkpt lat="44.04751" lon="2.30487">
        <ele>478.1</ele>
        <time>2018-04-23T14:46:58Z</time>
      </trkpt>
      <trkpt lat="44.04755" lon="2.3048">
        <ele>479.1</ele>
        <time>2018-04-23T14:47:03Z</time>
      </trkpt>
      <trkpt lat="44.04761" lon="2.30471">
        <ele>480.7</ele>
        <time>2018-04-23T14:47:09Z</time>
      </trkpt>
      <trkpt lat="44.04769" lon="2.30473">
        <ele>482.4</ele>
        <time>2018-04-23T14:47:10Z</time>
      </trkpt>
      <trkpt lat="44.04778" lon="2.30473">
        <ele>484.5</ele>
        <time>2018-04-23T14:47:12Z</time>
      </trkpt>
      <trkpt lat="44.04785" lon="2.30469">
        <ele>487</ele>
        <time>2018-04-23T14:47:15Z</time>
      </trkpt>
      <trkpt lat="44.04793" lon="2.30464">
        <ele>490.3</ele>
        <time>2018-04-23T14:47:18Z</time>
      </trkpt>
      <trkpt lat="44.04802" lon="2.30459">
        <ele>494</ele>
        <time>2018-04-23T14:47:21Z</time>
      </trkpt>
      <trkpt lat="44.04809" lon="2.30453">
        <ele>496.8</ele>
        <time>2018-04-23T14:47:25Z</time>
      </trkpt>
      <trkpt lat="44.04815" lon="2.30446">
        <ele>499.3</ele>
        <time>2018-04-23T14:47:30Z</time>
      </trkpt>
      <trkpt lat="44.04821" lon="2.30438">
        <ele>501.7</ele>
        <time>2018-04-23T14:47:35Z</time>
      </trkpt>
      <trkpt lat="44.04827" lon="2.30431">
        <ele>504.3</ele>
        <time>2018-04-23T14:47:40Z</time>
      </trkpt>
      <trkpt lat="44.04832" lon="2.30424">
        <ele>506.6</ele>
        <time>2018-04-23T14:47:45Z</time>
      </trkpt>
      <trkpt lat="44.04838" lon="2.30417">
        <ele>508.6</ele>
        <time>2018-04-23T14:47:50Z</time>
      </trkpt>
      <trkpt lat="44.04843" lon="2.30408">
        <ele>510.1</ele>
        <time>2018-04-23T14:47:55Z</time>
      </trkpt>
      <trkpt lat="44.04849" lon="2.30401">
        <ele>511.5</ele>
        <time>2018-04-23T14:48:00Z</time>
      </trkpt>
      <trkpt lat="44.04854" lon="2.30393">
        <ele>513.1</ele>
        <time>2018-04-23T14:48:06Z</time>
      </trkpt>
      <trkpt lat="44.0486" lon="2.30385">
        <ele>514.6</ele>
        <time>2018-04-23T14:48:12Z</time>
      </trkpt>
      <trkpt lat="44.04865" lon="2.30377">
        <ele>515.7</ele>
        <time>2018-04-23T14:48:17Z</time>
      </trkpt>
      <trkpt lat="44.04871" lon="2.30371">
        <ele>516.6</ele>
        <time>2018-04-23T14:48:22Z</time>
      </trkpt>
      <trkpt lat="44.04876" lon="2.30363">
        <ele>517.5</ele>
        <time>2018-04-23T14:48:27Z</time>
      </trkpt>
      <trkpt lat="44.04882" lon="2.30356">
        <ele>518.7</ele>
        <time>2018-04-23T14:48:32Z</time>
      </trkpt>
      <trkpt lat="44.04887" lon="2.30348">
        <ele>519.5</ele>
        <time>2018-04-23T14:48:37Z</time>
      </trkpt>
      <trkpt lat="44.04893" lon="2.30341">
        <ele>520.4</ele>
        <time>2018-04-23T14:48:42Z</time>
      </trkpt>
      <trkpt lat="44.049" lon="2.30335">
        <ele>521.2</ele>
        <time>2018-04-23T14:48:47Z</time>
      </trkpt>
      <trkpt lat="44.04907" lon="2.30327">
        <ele>522</ele>
        <time>2018-04-23T14:48:52Z</time>
      </trkpt>
      <trkpt lat="44.04914" lon="2.30321">
        <ele>522.1</ele>
        <time>2018-04-23T14:48:57Z</time>
      </trkpt>
      <trkpt lat="44.04919" lon="2.30315">
        <ele>523</ele>
        <time>2018-04-23T14:49:02Z</time>
      </trkpt>
      <trkpt lat="44.04925" lon="2.30309">
        <ele>523.4</ele>
        <time>2018-04-23T14:49:07Z</time>
      </trkpt>
      <trkpt lat="44.04931" lon="2.30302">
        <ele>524.4</ele>
        <time>2018-04-23T14:49:12Z</time>
      </trkpt>
      <trkpt lat="44.04937" lon="2.30293">
        <ele>525.3</ele>
        <time>2018-04-23T14:49:17Z</time>
      </trkpt>
      <trkpt lat="44.04943" lon="2.30286">
        <ele>526.5</ele>
        <time>2018-04-23T14:49:22Z</time>
      </trkpt>
      <trkpt lat="44.04949" lon="2.30279">
        <ele>527.2</ele>
        <time>2018-04-23T14:49:27Z</time>
      </trkpt>
      <trkpt lat="44.04956" lon="2.30273">
        <ele>526.6</ele>
        <time>2018-04-23T14:49:33Z</time>
      </trkpt>
      <trkpt lat="44.04963" lon="2.30267">
        <ele>526.4</ele>
        <time>2018-04-23T14:49:39Z</time>
      </trkpt>
      <trkpt lat="44.04969" lon="2.30261">
        <ele>526.5</ele>
        <time>2018-04-23T14:49:44Z</time>
      </trkpt>
      <trkpt lat="44.04975" lon="2.30256">
        <ele>526.7</ele>
        <time>2018-04-23T14:49:49Z</time>
      </trkpt>
      <trkpt lat="44.04982" lon="2.3025">
        <ele>526.6</ele>
        <time>2018-04-23T14:49:54Z</time>
      </trkpt>
      <trkpt lat="44.04988" lon="2.30244">
        <ele>527</ele>
        <time>2018-04-23T14:49:59Z</time>
      </trkpt>
      <trkpt lat="44.04994" lon="2.30237">
        <ele>527.2</ele>
        <time>2018-04-23T14:50:04Z</time>
      </trkpt>
      <trkpt lat="44.05001" lon="2.3023">
        <ele>527.4</ele>
        <time>2018-04-23T14:50:10Z</time>
      </trkpt>
      <trkpt lat="44.05007" lon="2.30223">
        <ele>527.5</ele>
        <time>2018-04-23T14:50:15Z</time>
      </trkpt>
      <trkpt lat="44.05013" lon="2.30217">
        <ele>527.7</ele>
        <time>2018-04-23T14:50:20Z</time>
      </trkpt>
      <trkpt lat="44.0502" lon="2.30211">
        <ele>526.6</ele>
        <time>2018-04-23T14:50:25Z</time>
      </trkpt>
      <trkpt lat="44.05026" lon="2.30204">
        <ele>525.2</ele>
        <time>2018-04-23T14:50:30Z</time>
      </trkpt>
      <trkpt lat="44.05031" lon="2.30196">
        <ele>524.4</ele>
        <time>2018-04-23T14:50:35Z</time>
      </trkpt>
      <trkpt lat="44.05037" lon="2.30187">
        <ele>523.6</ele>
        <time>2018-04-23T14:50:40Z</time>
      </trkpt>
      <trkpt lat="44.05042" lon="2.30179">
        <ele>522.3</ele>
        <time>2018-04-23T14:50:45Z</time>
      </trkpt>
      <trkpt lat="44.05046" lon="2.30171">
        <ele>521.3</ele>
        <time>2018-04-23T14:50:50Z</time>
      </trkpt>
      <trkpt lat="44.05051" lon="2.30163">
        <ele>519.5</ele>
        <time>2018-04-23T14:50:55Z</time>
      </trkpt>
      <trkpt lat="44.05056" lon="2.30154">
        <ele>517.5</ele>
        <time>2018-04-23T14:51:00Z</time>
      </trkpt>
      <trkpt lat="44.05061" lon="2.30145">
        <ele>516</ele>
        <time>2018-04-23T14:51:06Z</time>
      </trkpt>
      <trkpt lat="44.05065" lon="2.30136">
        <ele>515.3</ele>
        <time>2018-04-23T14:51:11Z</time>
      </trkpt>
      <trkpt lat="44.0507" lon="2.30128">
        <ele>514.4</ele>
        <time>2018-04-23T14:51:16Z</time>
      </trkpt>
      <trkpt lat="44.05074" lon="2.30118">
        <ele>513.3</ele>
        <time>2018-04-23T14:51:21Z</time>
      </trkpt>
      <trkpt lat="44.05079" lon="2.3011">
        <ele>512.5</ele>
        <time>2018-04-23T14:51:26Z</time>
      </trkpt>
      <trkpt lat="44.05084" lon="2.30101">
        <ele>511.5</ele>
        <time>2018-04-23T14:51:32Z</time>
      </trkpt>
      <trkpt lat="44.05087" lon="2.30092">
        <ele>511.4</ele>
        <time>2018-04-23T14:51:37Z</time>
      </trkpt>
      <trkpt lat="44.05091" lon="2.30081">
        <ele>510.7</ele>
        <time>2018-04-23T14:51:42Z</time>
      </trkpt>
      <trkpt lat="44.05095" lon="2.30071">
        <ele>510.3</ele>
        <time>2018-04-23T14:51:46Z</time>
      </trkpt>
      <trkpt lat="44.05098" lon="2.30059">
        <ele>510.2</ele>
        <time>2018-04-23T14:51:51Z</time>
      </trkpt>
      <trkpt lat="44.05101" lon="2.30048">
        <ele>510.3</ele>
        <time>2018-04-23T14:51:56Z</time>
      </trkpt>
      <trkpt lat="44.05104" lon="2.30037">
        <ele>509.7</ele>
        <time>2018-04-23T14:52:01Z</time>
      </trkpt>
      <trkpt lat="44.05107" lon="2.30026">
        <ele>509.2</ele>
        <time>2018-04-23T14:52:05Z</time>
      </trkpt>
      <trkpt lat="44.05109" lon="2.30015">
        <ele>508.8</ele>
        <time>2018-04-23T14:52:10Z</time>
      </trkpt>
      <trkpt lat="44.05107" lon="2.30004">
        <ele>510.1</ele>
        <time>2018-04-23T14:52:15Z</time>
      </trkpt>
      <trkpt lat="44.05104" lon="2.29993">
        <ele>510.9</ele>
        <time>2018-04-23T14:52:20Z</time>
      </trkpt>
      <trkpt lat="44.05101" lon="2.29982">
        <ele>511.8</ele>
        <time>2018-04-23T14:52:25Z</time>
      </trkpt>
      <trkpt lat="44.05098" lon="2.29972">
        <ele>513.1</ele>
        <time>2018-04-23T14:52:30Z</time>
      </trkpt>
      <trkpt lat="44.05095" lon="2.29962">
        <ele>514.3</ele>
        <time>2018-04-23T14:52:35Z</time>
      </trkpt>
      <trkpt lat="44.05093" lon="2.29951">
        <ele>514.9</ele>
        <time>2018-04-23T14:52:40Z</time>
      </trkpt>
      <trkpt lat="44.05091" lon="2.29939">
        <ele>515</ele>
        <time>2018-04-23T14:52:46Z</time>
      </trkpt>
      <trkpt lat="44.05091" lon="2.29928">
        <ele>514.8</ele>
        <time>2018-04-23T14:52:51Z</time>
      </trkpt>
      <trkpt lat="44.05092" lon="2.29918">
        <ele>514.3</ele>
        <time>2018-04-23T14:52:56Z</time>
      </trkpt>
      <trkpt lat="44.05092" lon="2.29907">
        <ele>514.6</ele>
        <time>2018-04-23T14:53:02Z</time>
      </trkpt>
      <trkpt lat="44.05093" lon="2.29896">
        <ele>515.7</ele>
        <time>2018-04-23T14:53:07Z</time>
      </trkpt>
      <trkpt lat="44.05096" lon="2.29886">
        <ele>515.4</ele>
        <time>2018-04-23T14:53:12Z</time>
      </trkpt>
      <trkpt lat="44.051" lon="2.29876">
        <ele>515.4</ele>
        <time>2018-04-23T14:53:17Z</time>
      </trkpt>
      <trkpt lat="44.05105" lon="2.29868">
        <ele>515.4</ele>
        <time>2018-04-23T14:53:23Z</time>
      </trkpt>
      <trkpt lat="44.05109" lon="2.29859">
        <ele>514.5</ele>
        <time>2018-04-23T14:53:29Z</time>
      </trkpt>
      <trkpt lat="44.05114" lon="2.29852">
        <ele>513.8</ele>
        <time>2018-04-23T14:53:34Z</time>
      </trkpt>
      <trkpt lat="44.05119" lon="2.29842">
        <ele>513.6</ele>
        <time>2018-04-23T14:53:38Z</time>
      </trkpt>
      <trkpt lat="44.0512" lon="2.29832">
        <ele>513.6</ele>
        <time>2018-04-23T14:53:43Z</time>
      </trkpt>
      <trkpt lat="44.05122" lon="2.29821">
        <ele>513.4</ele>
        <time>2018-04-23T14:53:48Z</time>
      </trkpt>
      <trkpt lat="44.05123" lon="2.29819">
        <ele>513.8</ele>
        <time>2018-04-23T14:53:55Z</time>
      </trkpt>
    </trkseg>
  </trk>
</gpx>